<?xml version='1.0' encoding='UTF-8'?><gpx version="1.1" creator="JPX - https://github.com/jenetics/jpx" xmlns="http://www.topografix.com/GPX/1/1"><trk><trkseg><trkpt lat="43.7784217" lon="11.2008083"><ele>39.0</ele><time>2026-04-27T16:56:01.965Z</time></trkpt><trkpt lat="43.77849" lon="11.2007567"><ele>39.0</ele><time>2026-04-27T16:56:07.965Z</time></trkpt><trkpt lat="43.778525" lon="11.200675"><ele>39.0</ele><time>2026-04-27T16:56:09.965Z</time></trkpt><trkpt lat="43.778605" lon="11.2006767"><ele>39.0</ele><time>2026-04-27T16:56:12.965Z</time></trkpt><trkpt lat="43.7786933" lon="11.2007283"><ele>39.0</ele><time>2026-04-27T16:56:14.974Z</time></trkpt><trkpt lat="43.7787683" lon="11.2008117"><ele>39.0</ele><time>2026-04-27T16:56:16.974Z</time></trkpt><trkpt lat="43.7788467" lon="11.2008883"><ele>39.166666666666664</ele><time>2026-04-27T16:56:18.975Z</time></trkpt><trkpt lat="43.77891" lon="11.200945"><ele>39.333333333333336</ele><time>2026-04-27T16:56:20.974Z</time></trkpt><trkpt lat="43.7789733" lon="11.201005"><ele>39.5</ele><time>2026-04-27T16:56:22.974Z</time></trkpt><trkpt lat="43.779035" lon="11.2010483"><ele>39.66666666666667</ele><time>2026-04-27T16:56:24.974Z</time></trkpt><trkpt lat="43.77911" lon="11.2011067"><ele>39.833333333333336</ele><time>2026-04-27T16:56:27.974Z</time></trkpt><trkpt lat="43.7791917" lon="11.2011567"><ele>40.0</ele><time>2026-04-27T16:56:30.974Z</time></trkpt><trkpt lat="43.77926" lon="11.201195"><ele>40.0</ele><time>2026-04-27T16:56:33.975Z</time></trkpt><trkpt lat="43.7793433" lon="11.201245"><ele>40.0</ele><time>2026-04-27T16:56:35.974Z</time></trkpt><trkpt lat="43.7794333" lon="11.2012967"><ele>40.0</ele><time>2026-04-27T16:56:38.974Z</time></trkpt><trkpt lat="43.7795" lon="11.2013367"><ele>40.0</ele><time>2026-04-27T16:56:40.974Z</time></trkpt><trkpt lat="43.7795683" lon="11.2013767"><ele>40.0</ele><time>2026-04-27T16:56:43.974Z</time></trkpt><trkpt lat="43.7796367" lon="11.2014167"><ele>40.0</ele><time>2026-04-27T16:56:46.974Z</time></trkpt><trkpt lat="43.7796983" lon="11.2014517"><ele>40.14285714285714</ele><time>2026-04-27T16:56:48.974Z</time></trkpt><trkpt lat="43.7797567" lon="11.2014867"><ele>40.285714285714285</ele><time>2026-04-27T16:56:50.974Z</time></trkpt><trkpt lat="43.7798217" lon="11.2015167"><ele>40.42857142857143</ele><time>2026-04-27T16:56:52.974Z</time></trkpt><trkpt lat="43.7798917" lon="11.2015567"><ele>40.57142857142857</ele><time>2026-04-27T16:56:54.974Z</time></trkpt><trkpt lat="43.77997" lon="11.2015933"><ele>40.714285714285715</ele><time>2026-04-27T16:56:56.974Z</time></trkpt><trkpt lat="43.7800367" lon="11.2016217"><ele>40.857142857142854</ele><time>2026-04-27T16:56:58.974Z</time></trkpt><trkpt lat="43.7800917" lon="11.20156"><ele>41.0</ele><time>2026-04-27T16:57:05.975Z</time></trkpt><trkpt lat="43.7801633" lon="11.2015817"><ele>40.71428571428571</ele><time>2026-04-27T16:57:11.975Z</time></trkpt><trkpt lat="43.7802183" lon="11.20163"><ele>40.42857142857143</ele><time>2026-04-27T16:57:14.974Z</time></trkpt><trkpt lat="43.7802767" lon="11.2016733"><ele>40.14285714285714</ele><time>2026-04-27T16:57:16.974Z</time></trkpt><trkpt lat="43.7803533" lon="11.2017283"><ele>39.857142857142854</ele><time>2026-04-27T16:57:18.974Z</time></trkpt><trkpt lat="43.7804217" lon="11.2017667"><ele>39.57142857142857</ele><time>2026-04-27T16:57:20.974Z</time></trkpt><trkpt lat="43.780485" lon="11.2018017"><ele>39.285714285714285</ele><time>2026-04-27T16:57:22.974Z</time></trkpt><trkpt lat="43.7805583" lon="11.2018367"><ele>39.0</ele><time>2026-04-27T16:57:24.974Z</time></trkpt><trkpt lat="43.7806183" lon="11.201885"><ele>39.0</ele><time>2026-04-27T16:57:26.974Z</time></trkpt><trkpt lat="43.780685" lon="11.2019483"><ele>39.0</ele><time>2026-04-27T16:57:28.974Z</time></trkpt><trkpt lat="43.7807533" lon="11.2020083"><ele>39.0</ele><time>2026-04-27T16:57:30.974Z</time></trkpt><trkpt lat="43.7808283" lon="11.2020683"><ele>39.0</ele><time>2026-04-27T16:57:32.974Z</time></trkpt><trkpt lat="43.7808983" lon="11.2021167"><ele>39.0</ele><time>2026-04-27T16:57:34.974Z</time></trkpt><trkpt lat="43.7809683" lon="11.2021567"><ele>39.0</ele><time>2026-04-27T16:57:36.974Z</time></trkpt><trkpt lat="43.7810283" lon="11.202195"><ele>39.0</ele><time>2026-04-27T16:57:38.974Z</time></trkpt><trkpt lat="43.7811133" lon="11.2022467"><ele>39.0</ele><time>2026-04-27T16:57:41.974Z</time></trkpt><trkpt lat="43.7811883" lon="11.2022933"><ele>39.0</ele><time>2026-04-27T16:57:43.974Z</time></trkpt><trkpt lat="43.7812767" lon="11.2023517"><ele>39.0</ele><time>2026-04-27T16:57:45.974Z</time></trkpt><trkpt lat="43.7813817" lon="11.2023933"><ele>39.0</ele><time>2026-04-27T16:57:47.974Z</time></trkpt><trkpt lat="43.7814733" lon="11.2024317"><ele>39.0</ele><time>2026-04-27T16:57:49.974Z</time></trkpt><trkpt lat="43.78156" lon="11.2024717"><ele>39.0</ele><time>2026-04-27T16:57:51.974Z</time></trkpt><trkpt lat="43.7816433" lon="11.202515"><ele>39.0</ele><time>2026-04-27T16:57:53.974Z</time></trkpt><trkpt lat="43.7817517" lon="11.20255"><ele>39.0</ele><time>2026-04-27T16:57:55.974Z</time></trkpt><trkpt lat="43.7818483" lon="11.2025967"><ele>39.0</ele><time>2026-04-27T16:57:57.974Z</time></trkpt><trkpt lat="43.78193" lon="11.202645"><ele>38.666666666666664</ele><time>2026-04-27T16:57:59.974Z</time></trkpt><trkpt lat="43.7820183" lon="11.2027133"><ele>38.333333333333336</ele><time>2026-04-27T16:58:01.974Z</time></trkpt><trkpt lat="43.78209" lon="11.2027583"><ele>38.0</ele><time>2026-04-27T16:58:03.975Z</time></trkpt><trkpt lat="43.7821633" lon="11.202815"><ele>37.66666666666667</ele><time>2026-04-27T16:58:05.974Z</time></trkpt><trkpt lat="43.7821983" lon="11.2029217"><ele>37.333333333333336</ele><time>2026-04-27T16:58:08.975Z</time></trkpt><trkpt lat="43.782205" lon="11.2030183"><ele>37.0</ele><time>2026-04-27T16:58:12.974Z</time></trkpt><trkpt lat="43.7822083" lon="11.2031333"><ele>37.16666666666667</ele><time>2026-04-27T16:58:15.974Z</time></trkpt><trkpt lat="43.7822067" lon="11.203235"><ele>37.333333333333336</ele><time>2026-04-27T16:58:18.974Z</time></trkpt><trkpt lat="43.7821933" lon="11.2033217"><ele>37.5</ele><time>2026-04-27T16:58:21.974Z</time></trkpt><trkpt lat="43.7821783" lon="11.2034133"><ele>37.666666666666664</ele><time>2026-04-27T16:58:23.974Z</time></trkpt><trkpt lat="43.7821583" lon="11.2035417"><ele>37.83333333333333</ele><time>2026-04-27T16:58:26.974Z</time></trkpt><trkpt lat="43.7821433" lon="11.2036433"><ele>38.0</ele><time>2026-04-27T16:58:28.975Z</time></trkpt><trkpt lat="43.7821217" lon="11.203755"><ele>38.0</ele><time>2026-04-27T16:58:30.974Z</time></trkpt><trkpt lat="43.782095" lon="11.20388"><ele>38.0</ele><time>2026-04-27T16:58:32.974Z</time></trkpt><trkpt lat="43.7820767" lon="11.2039983"><ele>38.0</ele><time>2026-04-27T16:58:34.974Z</time></trkpt><trkpt lat="43.7820633" lon="11.2041283"><ele>38.0</ele><time>2026-04-27T16:58:36.974Z</time></trkpt><trkpt lat="43.7820533" lon="11.2042467"><ele>38.0</ele><time>2026-04-27T16:58:38.974Z</time></trkpt><trkpt lat="43.7820517" lon="11.2043783"><ele>38.199999999999996</ele><time>2026-04-27T16:58:40.974Z</time></trkpt><trkpt lat="43.7820417" lon="11.2045217"><ele>38.4</ele><time>2026-04-27T16:58:42.974Z</time></trkpt><trkpt lat="43.7820367" lon="11.204645"><ele>38.599999999999994</ele><time>2026-04-27T16:58:44.974Z</time></trkpt><trkpt lat="43.7820267" lon="11.20475"><ele>38.8</ele><time>2026-04-27T16:58:46.974Z</time></trkpt><trkpt lat="43.78204" lon="11.2046317"><ele>39.0</ele><time>2026-04-27T16:58:54.975Z</time></trkpt><trkpt lat="43.782055" lon="11.20449"><ele>39.0</ele><time>2026-04-27T16:58:56.974Z</time></trkpt><trkpt lat="43.7821283" lon="11.20441"><ele>39.0</ele><time>2026-04-27T16:58:58.974Z</time></trkpt><trkpt lat="43.7821567" lon="11.2042983"><ele>39.0</ele><time>2026-04-27T16:59:00.974Z</time></trkpt><trkpt lat="43.78218" lon="11.2041933"><ele>39.0</ele><time>2026-04-27T16:59:02.974Z</time></trkpt><trkpt lat="43.7822083" lon="11.2040867"><ele>39.0</ele><time>2026-04-27T16:59:04.975Z</time></trkpt><trkpt lat="43.7822567" lon="11.2039983"><ele>39.0</ele><time>2026-04-27T16:59:06.974Z</time></trkpt><trkpt lat="43.7823133" lon="11.203945"><ele>39.0</ele><time>2026-04-27T16:59:08.974Z</time></trkpt><trkpt lat="43.78239" lon="11.20395"><ele>39.0</ele><time>2026-04-27T16:59:11.974Z</time></trkpt><trkpt lat="43.7824667" lon="11.2039733"><ele>39.0</ele><time>2026-04-27T16:59:13.974Z</time></trkpt><trkpt lat="43.7825383" lon="11.2040083"><ele>39.0</ele><time>2026-04-27T16:59:15.974Z</time></trkpt><trkpt lat="43.78261" lon="11.204035"><ele>39.0</ele><time>2026-04-27T16:59:17.974Z</time></trkpt><trkpt lat="43.7826983" lon="11.2040633"><ele>39.0</ele><time>2026-04-27T16:59:19.974Z</time></trkpt><trkpt lat="43.7827817" lon="11.2040917"><ele>39.166666666666664</ele><time>2026-04-27T16:59:21.974Z</time></trkpt><trkpt lat="43.78286" lon="11.2041233"><ele>39.333333333333336</ele><time>2026-04-27T16:59:23.974Z</time></trkpt><trkpt lat="43.78295" lon="11.2041483"><ele>39.5</ele><time>2026-04-27T16:59:25.974Z</time></trkpt><trkpt lat="43.7830283" lon="11.2041767"><ele>39.66666666666667</ele><time>2026-04-27T16:59:27.974Z</time></trkpt><trkpt lat="43.7831067" lon="11.2042"><ele>39.833333333333336</ele><time>2026-04-27T16:59:29.974Z</time></trkpt><trkpt lat="43.783195" lon="11.2042333"><ele>40.0</ele><time>2026-04-27T16:59:31.974Z</time></trkpt><trkpt lat="43.78329" lon="11.2042667"><ele>40.0</ele><time>2026-04-27T16:59:33.974Z</time></trkpt><trkpt lat="43.783395" lon="11.2042967"><ele>40.0</ele><time>2026-04-27T16:59:35.974Z</time></trkpt><trkpt lat="43.7834833" lon="11.2043267"><ele>40.0</ele><time>2026-04-27T16:59:37.974Z</time></trkpt><trkpt lat="43.783585" lon="11.2043517"><ele>40.0</ele><time>2026-04-27T16:59:39.975Z</time></trkpt><trkpt lat="43.7836667" lon="11.2043733"><ele>40.0</ele><time>2026-04-27T16:59:41.974Z</time></trkpt><trkpt lat="43.7837283" lon="11.2043967"><ele>40.0</ele><time>2026-04-27T16:59:43.975Z</time></trkpt><trkpt lat="43.7838017" lon="11.2044267"><ele>40.0</ele><time>2026-04-27T16:59:45.974Z</time></trkpt><trkpt lat="43.7838617" lon="11.2044583"><ele>40.0</ele><time>2026-04-27T16:59:47.975Z</time></trkpt><trkpt lat="43.78392" lon="11.2044933"><ele>40.0</ele><time>2026-04-27T16:59:49.974Z</time></trkpt><trkpt lat="43.78399" lon="11.204515"><ele>40.0</ele><time>2026-04-27T16:59:51.974Z</time></trkpt><trkpt lat="43.7840717" lon="11.2045433"><ele>40.0</ele><time>2026-04-27T16:59:53.974Z</time></trkpt><trkpt lat="43.78414" lon="11.20457"><ele>40.0</ele><time>2026-04-27T16:59:55.974Z</time></trkpt><trkpt lat="43.7842117" lon="11.204595"><ele>40.0</ele><time>2026-04-27T16:59:57.974Z</time></trkpt><trkpt lat="43.7843" lon="11.204625"><ele>40.0</ele><time>2026-04-27T16:59:59.974Z</time></trkpt><trkpt lat="43.78437" lon="11.2046667"><ele>40.0</ele><time>2026-04-27T17:00:01.974Z</time></trkpt><trkpt lat="43.7844533" lon="11.2047017"><ele>40.0</ele><time>2026-04-27T17:00:03.974Z</time></trkpt><trkpt lat="43.7845367" lon="11.2047333"><ele>40.0</ele><time>2026-04-27T17:00:05.975Z</time></trkpt><trkpt lat="43.7846333" lon="11.20478"><ele>40.0</ele><time>2026-04-27T17:00:07.974Z</time></trkpt><trkpt lat="43.7847033" lon="11.2048167"><ele>40.0</ele><time>2026-04-27T17:00:09.975Z</time></trkpt><trkpt lat="43.7847917" lon="11.20485"><ele>39.833333333333336</ele><time>2026-04-27T17:00:11.974Z</time></trkpt><trkpt lat="43.7848917" lon="11.2048733"><ele>39.66666666666667</ele><time>2026-04-27T17:00:13.974Z</time></trkpt><trkpt lat="43.7849683" lon="11.2048933"><ele>39.5</ele><time>2026-04-27T17:00:15.974Z</time></trkpt><trkpt lat="43.785035" lon="11.20493"><ele>39.333333333333336</ele><time>2026-04-27T17:00:17.974Z</time></trkpt><trkpt lat="43.7850417" lon="11.2050517"><ele>39.166666666666664</ele><time>2026-04-27T17:00:20.973Z</time></trkpt><trkpt lat="43.785005" lon="11.2051633"><ele>39.0</ele><time>2026-04-27T17:00:23.973Z</time></trkpt><trkpt lat="43.78496" lon="11.2052667"><ele>39.0</ele><time>2026-04-27T17:00:26.973Z</time></trkpt><trkpt lat="43.78492" lon="11.20535"><ele>39.0</ele><time>2026-04-27T17:00:28.974Z</time></trkpt><trkpt lat="43.7848817" lon="11.2054417"><ele>39.0</ele><time>2026-04-27T17:00:30.973Z</time></trkpt><trkpt lat="43.7848383" lon="11.2055233"><ele>39.0</ele><time>2026-04-27T17:00:32.973Z</time></trkpt><trkpt lat="43.7847967" lon="11.2056117"><ele>39.0</ele><time>2026-04-27T17:00:34.973Z</time></trkpt><trkpt lat="43.78475" lon="11.2057033"><ele>39.0</ele><time>2026-04-27T17:00:36.973Z</time></trkpt><trkpt lat="43.7847083" lon="11.2058033"><ele>39.166666666666664</ele><time>2026-04-27T17:00:38.973Z</time></trkpt><trkpt lat="43.78467" lon="11.205895"><ele>39.333333333333336</ele><time>2026-04-27T17:00:40.973Z</time></trkpt><trkpt lat="43.784625" lon="11.2059883"><ele>39.5</ele><time>2026-04-27T17:00:42.973Z</time></trkpt><trkpt lat="43.7845767" lon="11.20609"><ele>39.66666666666667</ele><time>2026-04-27T17:00:44.973Z</time></trkpt><trkpt lat="43.784525" lon="11.2061933"><ele>39.833333333333336</ele><time>2026-04-27T17:00:46.973Z</time></trkpt><trkpt lat="43.7844717" lon="11.2063"><ele>40.0</ele><time>2026-04-27T17:00:48.973Z</time></trkpt><trkpt lat="43.7844267" lon="11.2064017"><ele>40.0</ele><time>2026-04-27T17:00:50.973Z</time></trkpt><trkpt lat="43.784385" lon="11.2064967"><ele>40.0</ele><time>2026-04-27T17:00:52.973Z</time></trkpt><trkpt lat="43.7843283" lon="11.20659"><ele>40.0</ele><time>2026-04-27T17:00:54.973Z</time></trkpt><trkpt lat="43.784275" lon="11.20669"><ele>40.0</ele><time>2026-04-27T17:00:56.973Z</time></trkpt><trkpt lat="43.784205" lon="11.2068017"><ele>40.0</ele><time>2026-04-27T17:00:58.973Z</time></trkpt><trkpt lat="43.7841467" lon="11.20693"><ele>40.0</ele><time>2026-04-27T17:01:00.973Z</time></trkpt><trkpt lat="43.7840883" lon="11.2070567"><ele>40.0</ele><time>2026-04-27T17:01:02.974Z</time></trkpt><trkpt lat="43.7840367" lon="11.20717"><ele>40.0</ele><time>2026-04-27T17:01:04.973Z</time></trkpt><trkpt lat="43.7839817" lon="11.2073"><ele>40.0</ele><time>2026-04-27T17:01:06.973Z</time></trkpt><trkpt lat="43.78393" lon="11.2074067"><ele>40.0</ele><time>2026-04-27T17:01:08.973Z</time></trkpt><trkpt lat="43.783885" lon="11.207505"><ele>39.66666666666667</ele><time>2026-04-27T17:01:10.973Z</time></trkpt><trkpt lat="43.7838267" lon="11.2076133"><ele>39.333333333333336</ele><time>2026-04-27T17:01:12.973Z</time></trkpt><trkpt lat="43.7837967" lon="11.2077183"><ele>39.0</ele><time>2026-04-27T17:01:14.973Z</time></trkpt><trkpt lat="43.7837667" lon="11.2078167"><ele>38.666666666666664</ele><time>2026-04-27T17:01:16.973Z</time></trkpt><trkpt lat="43.7837267" lon="11.2078917"><ele>38.33333333333333</ele><time>2026-04-27T17:01:18.973Z</time></trkpt><trkpt lat="43.7836833" lon="11.2079983"><ele>38.0</ele><time>2026-04-27T17:01:21.973Z</time></trkpt><trkpt lat="43.7836583" lon="11.208105"><ele>37.5</ele><time>2026-04-27T17:01:23.974Z</time></trkpt><trkpt lat="43.7836317" lon="11.2082233"><ele>37.0</ele><time>2026-04-27T17:01:25.973Z</time></trkpt><trkpt lat="43.7835917" lon="11.20833"><ele>36.5</ele><time>2026-04-27T17:01:27.973Z</time></trkpt><trkpt lat="43.7835517" lon="11.2084217"><ele>36.0</ele><time>2026-04-27T17:01:29.973Z</time></trkpt><trkpt lat="43.7835067" lon="11.208535"><ele>35.5</ele><time>2026-04-27T17:01:31.973Z</time></trkpt><trkpt lat="43.7834667" lon="11.208645"><ele>35.0</ele><time>2026-04-27T17:01:33.973Z</time></trkpt><trkpt lat="43.7834367" lon="11.2087533"><ele>35.8</ele><time>2026-04-27T17:01:35.973Z</time></trkpt><trkpt lat="43.7834067" lon="11.2088617"><ele>36.6</ele><time>2026-04-27T17:01:37.973Z</time></trkpt><trkpt lat="43.78338" lon="11.208985"><ele>37.4</ele><time>2026-04-27T17:01:39.973Z</time></trkpt><trkpt lat="43.7833483" lon="11.20911"><ele>38.2</ele><time>2026-04-27T17:01:41.973Z</time></trkpt><trkpt lat="43.7833217" lon="11.209235"><ele>39.0</ele><time>2026-04-27T17:01:43.973Z</time></trkpt><trkpt lat="43.783285" lon="11.2093533"><ele>39.0</ele><time>2026-04-27T17:01:45.973Z</time></trkpt><trkpt lat="43.7832433" lon="11.2094417"><ele>39.0</ele><time>2026-04-27T17:01:47.974Z</time></trkpt><trkpt lat="43.7831917" lon="11.2095333"><ele>39.0</ele><time>2026-04-27T17:01:49.973Z</time></trkpt><trkpt lat="43.7831367" lon="11.2096317"><ele>39.0</ele><time>2026-04-27T17:01:51.973Z</time></trkpt><trkpt lat="43.7830733" lon="11.20972"><ele>39.0</ele><time>2026-04-27T17:01:53.973Z</time></trkpt><trkpt lat="43.783005" lon="11.2098133"><ele>39.0</ele><time>2026-04-27T17:01:55.974Z</time></trkpt><trkpt lat="43.7829517" lon="11.2099217"><ele>38.333333333333336</ele><time>2026-04-27T17:01:57.973Z</time></trkpt><trkpt lat="43.7829133" lon="11.2100317"><ele>37.666666666666664</ele><time>2026-04-27T17:01:59.973Z</time></trkpt><trkpt lat="43.78288" lon="11.2101383"><ele>37.0</ele><time>2026-04-27T17:02:01.973Z</time></trkpt><trkpt lat="43.7828433" lon="11.2102417"><ele>36.33333333333333</ele><time>2026-04-27T17:02:03.973Z</time></trkpt><trkpt lat="43.7828067" lon="11.2103433"><ele>35.666666666666664</ele><time>2026-04-27T17:02:05.973Z</time></trkpt><trkpt lat="43.7827633" lon="11.21045"><ele>35.0</ele><time>2026-04-27T17:02:07.973Z</time></trkpt><trkpt lat="43.7827133" lon="11.2105383"><ele>35.33333333333333</ele><time>2026-04-27T17:02:09.973Z</time></trkpt><trkpt lat="43.78267" lon="11.2106133"><ele>35.666666666666664</ele><time>2026-04-27T17:02:11.973Z</time></trkpt><trkpt lat="43.7826267" lon="11.2106917"><ele>36.0</ele><time>2026-04-27T17:02:13.973Z</time></trkpt><trkpt lat="43.7825817" lon="11.2107633"><ele>36.333333333333336</ele><time>2026-04-27T17:02:15.973Z</time></trkpt><trkpt lat="43.7825367" lon="11.210845"><ele>36.66666666666667</ele><time>2026-04-27T17:02:17.973Z</time></trkpt><trkpt lat="43.7825017" lon="11.2109633"><ele>37.0</ele><time>2026-04-27T17:02:19.973Z</time></trkpt><trkpt lat="43.7824583" lon="11.21109"><ele>37.0</ele><time>2026-04-27T17:02:21.973Z</time></trkpt><trkpt lat="43.78241" lon="11.2112133"><ele>37.0</ele><time>2026-04-27T17:02:23.973Z</time></trkpt><trkpt lat="43.782355" lon="11.211355"><ele>37.0</ele><time>2026-04-27T17:02:25.973Z</time></trkpt><trkpt lat="43.7823083" lon="11.211495"><ele>37.0</ele><time>2026-04-27T17:02:27.973Z</time></trkpt><trkpt lat="43.7822617" lon="11.21161"><ele>37.0</ele><time>2026-04-27T17:02:29.973Z</time></trkpt><trkpt lat="43.7822183" lon="11.2117083"><ele>36.2</ele><time>2026-04-27T17:02:31.973Z</time></trkpt><trkpt lat="43.7821583" lon="11.21182"><ele>35.400000000000006</ele><time>2026-04-27T17:02:33.973Z</time></trkpt><trkpt lat="43.7821017" lon="11.2119383"><ele>34.599999999999994</ele><time>2026-04-27T17:02:35.973Z</time></trkpt><trkpt lat="43.7820467" lon="11.2120483"><ele>33.8</ele><time>2026-04-27T17:02:37.973Z</time></trkpt><trkpt lat="43.781995" lon="11.2121417"><ele>33.0</ele><time>2026-04-27T17:02:39.973Z</time></trkpt><trkpt lat="43.7819483" lon="11.2122467"><ele>32.833333333333336</ele><time>2026-04-27T17:02:41.973Z</time></trkpt><trkpt lat="43.7819067" lon="11.2123467"><ele>32.666666666666664</ele><time>2026-04-27T17:02:43.973Z</time></trkpt><trkpt lat="43.7818683" lon="11.2124317"><ele>32.5</ele><time>2026-04-27T17:02:45.973Z</time></trkpt><trkpt lat="43.7818217" lon="11.21253"><ele>32.33333333333333</ele><time>2026-04-27T17:02:48.974Z</time></trkpt><trkpt lat="43.7817833" lon="11.2126267"><ele>32.166666666666664</ele><time>2026-04-27T17:02:52.973Z</time></trkpt><trkpt lat="43.78174" lon="11.2127233"><ele>32.0</ele><time>2026-04-27T17:02:56.973Z</time></trkpt><trkpt lat="43.781695" lon="11.2128083"><ele>32.666666666666664</ele><time>2026-04-27T17:02:59.974Z</time></trkpt><trkpt lat="43.7816317" lon="11.2128983"><ele>33.33333333333333</ele><time>2026-04-27T17:03:02.973Z</time></trkpt><trkpt lat="43.7815733" lon="11.2129883"><ele>34.0</ele><time>2026-04-27T17:03:05.973Z</time></trkpt><trkpt lat="43.781515" lon="11.2130883"><ele>34.666666666666664</ele><time>2026-04-27T17:03:08.973Z</time></trkpt><trkpt lat="43.781465" lon="11.2132117"><ele>35.333333333333336</ele><time>2026-04-27T17:03:11.973Z</time></trkpt><trkpt lat="43.7814283" lon="11.2132983"><ele>36.0</ele><time>2026-04-27T17:03:13.973Z</time></trkpt><trkpt lat="43.781395" lon="11.2133833"><ele>36.00000000000001</ele><time>2026-04-27T17:03:15.973Z</time></trkpt><trkpt lat="43.7813617" lon="11.213475"><ele>36.0</ele><time>2026-04-27T17:03:17.973Z</time></trkpt><trkpt lat="43.7813283" lon="11.21356"><ele>36.0</ele><time>2026-04-27T17:03:19.973Z</time></trkpt><trkpt lat="43.7812933" lon="11.21365"><ele>36.0</ele><time>2026-04-27T17:03:21.973Z</time></trkpt><trkpt lat="43.7812517" lon="11.2137367"><ele>36.0</ele><time>2026-04-27T17:03:23.973Z</time></trkpt><trkpt lat="43.7812017" lon="11.2138183"><ele>36.00000000000001</ele><time>2026-04-27T17:03:25.973Z</time></trkpt><trkpt lat="43.7811433" lon="11.2138883"><ele>36.0</ele><time>2026-04-27T17:03:27.973Z</time></trkpt><trkpt lat="43.7810967" lon="11.21396"><ele>35.333333333333336</ele><time>2026-04-27T17:03:29.973Z</time></trkpt><trkpt lat="43.7810617" lon="11.2140383"><ele>34.666666666666664</ele><time>2026-04-27T17:03:31.973Z</time></trkpt><trkpt lat="43.78101" lon="11.2141367"><ele>34.0</ele><time>2026-04-27T17:03:34.973Z</time></trkpt><trkpt lat="43.7809683" lon="11.2142367"><ele>33.33333333333333</ele><time>2026-04-27T17:03:36.973Z</time></trkpt><trkpt lat="43.7809233" lon="11.2143117"><ele>32.666666666666664</ele><time>2026-04-27T17:03:38.973Z</time></trkpt><trkpt lat="43.7808733" lon="11.2144117"><ele>32.0</ele><time>2026-04-27T17:03:40.973Z</time></trkpt><trkpt lat="43.7808283" lon="11.214505"><ele>33.4</ele><time>2026-04-27T17:03:42.973Z</time></trkpt><trkpt lat="43.7807783" lon="11.2146217"><ele>34.800000000000004</ele><time>2026-04-27T17:03:44.973Z</time></trkpt><trkpt lat="43.7807233" lon="11.2147433"><ele>36.2</ele><time>2026-04-27T17:03:46.973Z</time></trkpt><trkpt lat="43.780665" lon="11.2148667"><ele>37.6</ele><time>2026-04-27T17:03:48.973Z</time></trkpt><trkpt lat="43.7806" lon="11.2149883"><ele>39.0</ele><time>2026-04-27T17:03:50.973Z</time></trkpt><trkpt lat="43.780545" lon="11.215115"><ele>39.0</ele><time>2026-04-27T17:03:52.973Z</time></trkpt><trkpt lat="43.7805017" lon="11.215235"><ele>39.0</ele><time>2026-04-27T17:03:54.973Z</time></trkpt><trkpt lat="43.78046" lon="11.215325"><ele>39.0</ele><time>2026-04-27T17:03:56.973Z</time></trkpt><trkpt lat="43.7804083" lon="11.21543"><ele>39.0</ele><time>2026-04-27T17:03:58.973Z</time></trkpt><trkpt lat="43.7803567" lon="11.2155417"><ele>39.0</ele><time>2026-04-27T17:04:00.973Z</time></trkpt><trkpt lat="43.780315" lon="11.2156467"><ele>39.0</ele><time>2026-04-27T17:04:02.973Z</time></trkpt><trkpt lat="43.7802733" lon="11.2157433"><ele>38.6</ele><time>2026-04-27T17:04:04.973Z</time></trkpt><trkpt lat="43.7802183" lon="11.215855"><ele>38.2</ele><time>2026-04-27T17:04:06.973Z</time></trkpt><trkpt lat="43.7801717" lon="11.2159867"><ele>37.800000000000004</ele><time>2026-04-27T17:04:08.974Z</time></trkpt><trkpt lat="43.7801117" lon="11.2161267"><ele>37.4</ele><time>2026-04-27T17:04:10.973Z</time></trkpt><trkpt lat="43.780075" lon="11.2162083"><ele>37.0</ele><time>2026-04-27T17:04:11.973Z</time></trkpt><trkpt lat="43.780015" lon="11.2163417"><ele>37.8</ele><time>2026-04-27T17:04:13.973Z</time></trkpt><trkpt lat="43.7799667" lon="11.2164583"><ele>38.6</ele><time>2026-04-27T17:04:15.973Z</time></trkpt><trkpt lat="43.779925" lon="11.2165783"><ele>39.4</ele><time>2026-04-27T17:04:17.973Z</time></trkpt><trkpt lat="43.77989" lon="11.21669"><ele>40.199999999999996</ele><time>2026-04-27T17:04:19.973Z</time></trkpt><trkpt lat="43.779845" lon="11.2168067"><ele>41.0</ele><time>2026-04-27T17:04:21.974Z</time></trkpt><trkpt lat="43.7798117" lon="11.2169067"><ele>41.0</ele><time>2026-04-27T17:04:23.973Z</time></trkpt><trkpt lat="43.7797917" lon="11.2170217"><ele>41.0</ele><time>2026-04-27T17:04:25.973Z</time></trkpt><trkpt lat="43.7798067" lon="11.2171167"><ele>41.0</ele><time>2026-04-27T17:04:27.973Z</time></trkpt><trkpt lat="43.779785" lon="11.21722"><ele>41.0</ele><time>2026-04-27T17:04:29.974Z</time></trkpt><trkpt lat="43.779745" lon="11.21733"><ele>41.0</ele><time>2026-04-27T17:04:31.973Z</time></trkpt><trkpt lat="43.7797017" lon="11.217435"><ele>41.0</ele><time>2026-04-27T17:04:33.973Z</time></trkpt><trkpt lat="43.7796617" lon="11.2175133"><ele>40.83333333333333</ele><time>2026-04-27T17:04:35.973Z</time></trkpt><trkpt lat="43.77961" lon="11.2175917"><ele>40.666666666666664</ele><time>2026-04-27T17:04:37.973Z</time></trkpt><trkpt lat="43.779545" lon="11.2176917"><ele>40.5</ele><time>2026-04-27T17:04:39.973Z</time></trkpt><trkpt lat="43.7795067" lon="11.2178083"><ele>40.333333333333336</ele><time>2026-04-27T17:04:41.973Z</time></trkpt><trkpt lat="43.7794967" lon="11.2178983"><ele>40.16666666666667</ele><time>2026-04-27T17:04:42.973Z</time></trkpt><trkpt lat="43.779485" lon="11.2179967"><ele>40.0</ele><time>2026-04-27T17:04:43.973Z</time></trkpt><trkpt lat="43.7794467" lon="11.218115"><ele>40.333333333333336</ele><time>2026-04-27T17:04:45.973Z</time></trkpt><trkpt lat="43.7793967" lon="11.21822"><ele>40.66666666666667</ele><time>2026-04-27T17:04:47.973Z</time></trkpt><trkpt lat="43.7793583" lon="11.2183333"><ele>41.0</ele><time>2026-04-27T17:04:49.973Z</time></trkpt><trkpt lat="43.7793233" lon="11.2184317"><ele>41.333333333333336</ele><time>2026-04-27T17:04:51.973Z</time></trkpt><trkpt lat="43.7792883" lon="11.21855"><ele>41.666666666666664</ele><time>2026-04-27T17:04:53.973Z</time></trkpt><trkpt lat="43.779235" lon="11.2186317"><ele>42.0</ele><time>2026-04-27T17:04:55.973Z</time></trkpt><trkpt lat="43.7791667" lon="11.2186883"><ele>42.0</ele><time>2026-04-27T17:04:57.972Z</time></trkpt><trkpt lat="43.77911" lon="11.2187733"><ele>42.0</ele><time>2026-04-27T17:04:59.972Z</time></trkpt><trkpt lat="43.7790783" lon="11.21886"><ele>42.0</ele><time>2026-04-27T17:05:01.972Z</time></trkpt><trkpt lat="43.7790517" lon="11.218945"><ele>42.0</ele><time>2026-04-27T17:05:03.972Z</time></trkpt><trkpt lat="43.779025" lon="11.2190283"><ele>42.0</ele><time>2026-04-27T17:05:05.972Z</time></trkpt><trkpt lat="43.7789933" lon="11.2191167"><ele>42.0</ele><time>2026-04-27T17:05:07.972Z</time></trkpt><trkpt lat="43.7789517" lon="11.2192083"><ele>42.0</ele><time>2026-04-27T17:05:09.972Z</time></trkpt><trkpt lat="43.77892" lon="11.2193067"><ele>42.0</ele><time>2026-04-27T17:05:11.972Z</time></trkpt><trkpt lat="43.778865" lon="11.219435"><ele>42.0</ele><time>2026-04-27T17:05:13.972Z</time></trkpt><trkpt lat="43.77881" lon="11.2195817"><ele>42.0</ele><time>2026-04-27T17:05:15.972Z</time></trkpt><trkpt lat="43.778775" lon="11.2196933"><ele>42.0</ele><time>2026-04-27T17:05:17.972Z</time></trkpt><trkpt lat="43.7787283" lon="11.21982"><ele>42.0</ele><time>2026-04-27T17:05:19.972Z</time></trkpt><trkpt lat="43.7786767" lon="11.2199283"><ele>42.0</ele><time>2026-04-27T17:05:21.973Z</time></trkpt><trkpt lat="43.7786283" lon="11.2200583"><ele>42.0</ele><time>2026-04-27T17:05:23.972Z</time></trkpt><trkpt lat="43.7785817" lon="11.2201717"><ele>42.0</ele><time>2026-04-27T17:05:25.972Z</time></trkpt><trkpt lat="43.77854" lon="11.220285"><ele>42.0</ele><time>2026-04-27T17:05:27.972Z</time></trkpt><trkpt lat="43.7785017" lon="11.2204033"><ele>42.0</ele><time>2026-04-27T17:05:29.972Z</time></trkpt><trkpt lat="43.7784617" lon="11.220515"><ele>42.666666666666664</ele><time>2026-04-27T17:05:31.973Z</time></trkpt><trkpt lat="43.7784267" lon="11.2205917"><ele>43.333333333333336</ele><time>2026-04-27T17:05:33.972Z</time></trkpt><trkpt lat="43.7783783" lon="11.22071"><ele>44.0</ele><time>2026-04-27T17:05:35.972Z</time></trkpt><trkpt lat="43.7783383" lon="11.2208033"><ele>44.66666666666667</ele><time>2026-04-27T17:05:37.972Z</time></trkpt><trkpt lat="43.7782983" lon="11.2208917"><ele>45.333333333333336</ele><time>2026-04-27T17:05:39.973Z</time></trkpt><trkpt lat="43.7782667" lon="11.22098"><ele>46.0</ele><time>2026-04-27T17:05:41.972Z</time></trkpt><trkpt lat="43.7782333" lon="11.2210867"><ele>46.0</ele><time>2026-04-27T17:05:43.972Z</time></trkpt><trkpt lat="43.778195" lon="11.2211983"><ele>46.0</ele><time>2026-04-27T17:05:45.972Z</time></trkpt><trkpt lat="43.778155" lon="11.221335"><ele>46.0</ele><time>2026-04-27T17:05:47.972Z</time></trkpt><trkpt lat="43.7781233" lon="11.22144"><ele>46.0</ele><time>2026-04-27T17:05:49.972Z</time></trkpt><trkpt lat="43.77809" lon="11.221535"><ele>46.0</ele><time>2026-04-27T17:05:51.973Z</time></trkpt><trkpt lat="43.7780717" lon="11.22163"><ele>46.0</ele><time>2026-04-27T17:05:53.972Z</time></trkpt><trkpt lat="43.778065" lon="11.2217233"><ele>46.0</ele><time>2026-04-27T17:05:55.972Z</time></trkpt><trkpt lat="43.7780483" lon="11.2218317"><ele>46.0</ele><time>2026-04-27T17:05:57.972Z</time></trkpt><trkpt lat="43.7780033" lon="11.2219267"><ele>46.0</ele><time>2026-04-27T17:05:59.972Z</time></trkpt><trkpt lat="43.77796" lon="11.2220267"><ele>46.0</ele><time>2026-04-27T17:06:01.972Z</time></trkpt><trkpt lat="43.777915" lon="11.2221217"><ele>46.0</ele><time>2026-04-27T17:06:03.972Z</time></trkpt><trkpt lat="43.777875" lon="11.2222167"><ele>46.0</ele><time>2026-04-27T17:06:05.972Z</time></trkpt><trkpt lat="43.7778333" lon="11.2223133"><ele>46.0</ele><time>2026-04-27T17:06:07.972Z</time></trkpt><trkpt lat="43.7777867" lon="11.2224167"><ele>46.0</ele><time>2026-04-27T17:06:09.972Z</time></trkpt><trkpt lat="43.7777533" lon="11.2225217"><ele>46.0</ele><time>2026-04-27T17:06:11.972Z</time></trkpt><trkpt lat="43.7777217" lon="11.222625"><ele>46.0</ele><time>2026-04-27T17:06:13.973Z</time></trkpt><trkpt lat="43.7776967" lon="11.2227083"><ele>46.0</ele><time>2026-04-27T17:06:15.972Z</time></trkpt><trkpt lat="43.7776733" lon="11.222795"><ele>46.0</ele><time>2026-04-27T17:06:17.972Z</time></trkpt><trkpt lat="43.777645" lon="11.2229"><ele>46.0</ele><time>2026-04-27T17:06:19.972Z</time></trkpt><trkpt lat="43.7776067" lon="11.223025"><ele>46.0</ele><time>2026-04-27T17:06:21.972Z</time></trkpt><trkpt lat="43.7775517" lon="11.22317"><ele>46.0</ele><time>2026-04-27T17:06:23.972Z</time></trkpt><trkpt lat="43.7775083" lon="11.2233167"><ele>46.0</ele><time>2026-04-27T17:06:25.972Z</time></trkpt><trkpt lat="43.7774633" lon="11.22344"><ele>46.0</ele><time>2026-04-27T17:06:27.973Z</time></trkpt><trkpt lat="43.7774283" lon="11.2235533"><ele>45.5</ele><time>2026-04-27T17:06:29.972Z</time></trkpt><trkpt lat="43.7773633" lon="11.2236383"><ele>45.0</ele><time>2026-04-27T17:06:31.972Z</time></trkpt><trkpt lat="43.7773117" lon="11.2237233"><ele>44.5</ele><time>2026-04-27T17:06:33.972Z</time></trkpt><trkpt lat="43.7772883" lon="11.22383"><ele>44.0</ele><time>2026-04-27T17:06:35.972Z</time></trkpt><trkpt lat="43.77725" lon="11.223945"><ele>43.5</ele><time>2026-04-27T17:06:37.972Z</time></trkpt><trkpt lat="43.7772083" lon="11.224055"><ele>43.0</ele><time>2026-04-27T17:06:39.972Z</time></trkpt><trkpt lat="43.7771783" lon="11.224165"><ele>42.199999999999996</ele><time>2026-04-27T17:06:41.972Z</time></trkpt><trkpt lat="43.77718" lon="11.2242967"><ele>41.4</ele><time>2026-04-27T17:06:43.972Z</time></trkpt><trkpt lat="43.7771883" lon="11.2244317"><ele>40.599999999999994</ele><time>2026-04-27T17:06:45.972Z</time></trkpt><trkpt lat="43.7771883" lon="11.2245567"><ele>39.8</ele><time>2026-04-27T17:06:47.972Z</time></trkpt><trkpt lat="43.7771667" lon="11.2246717"><ele>39.0</ele><time>2026-04-27T17:06:49.972Z</time></trkpt><trkpt lat="43.7771383" lon="11.2247783"><ele>39.5</ele><time>2026-04-27T17:06:51.972Z</time></trkpt><trkpt lat="43.7771083" lon="11.2248867"><ele>40.0</ele><time>2026-04-27T17:06:53.972Z</time></trkpt><trkpt lat="43.7770767" lon="11.22499"><ele>40.5</ele><time>2026-04-27T17:06:55.972Z</time></trkpt><trkpt lat="43.7770533" lon="11.2250933"><ele>41.0</ele><time>2026-04-27T17:06:57.972Z</time></trkpt><trkpt lat="43.7770267" lon="11.2251867"><ele>41.5</ele><time>2026-04-27T17:06:59.972Z</time></trkpt><trkpt lat="43.7769983" lon="11.2252817"><ele>42.0</ele><time>2026-04-27T17:07:01.972Z</time></trkpt><trkpt lat="43.7769583" lon="11.2253733"><ele>42.0</ele><time>2026-04-27T17:07:03.972Z</time></trkpt><trkpt lat="43.776915" lon="11.225465"><ele>42.0</ele><time>2026-04-27T17:07:05.972Z</time></trkpt><trkpt lat="43.77688" lon="11.22556"><ele>42.0</ele><time>2026-04-27T17:07:07.972Z</time></trkpt><trkpt lat="43.77683" lon="11.2257"><ele>42.0</ele><time>2026-04-27T17:07:09.972Z</time></trkpt><trkpt lat="43.7767917" lon="11.2258167"><ele>42.0</ele><time>2026-04-27T17:07:11.972Z</time></trkpt><trkpt lat="43.7767517" lon="11.22592"><ele>42.0</ele><time>2026-04-27T17:07:13.972Z</time></trkpt><trkpt lat="43.776715" lon="11.2260333"><ele>42.0</ele><time>2026-04-27T17:07:15.972Z</time></trkpt><trkpt lat="43.77668" lon="11.2261467"><ele>42.0</ele><time>2026-04-27T17:07:17.972Z</time></trkpt><trkpt lat="43.7766517" lon="11.226275"><ele>42.0</ele><time>2026-04-27T17:07:19.972Z</time></trkpt><trkpt lat="43.7766167" lon="11.2263967"><ele>42.0</ele><time>2026-04-27T17:07:21.972Z</time></trkpt><trkpt lat="43.7765983" lon="11.2265333"><ele>42.0</ele><time>2026-04-27T17:07:23.973Z</time></trkpt><trkpt lat="43.77657" lon="11.22667"><ele>42.0</ele><time>2026-04-27T17:07:25.972Z</time></trkpt><trkpt lat="43.7765383" lon="11.2267933"><ele>42.0</ele><time>2026-04-27T17:07:27.972Z</time></trkpt><trkpt lat="43.7764933" lon="11.2269217"><ele>42.0</ele><time>2026-04-27T17:07:29.972Z</time></trkpt><trkpt lat="43.7764517" lon="11.22705"><ele>42.0</ele><time>2026-04-27T17:07:31.972Z</time></trkpt><trkpt lat="43.7764183" lon="11.227175"><ele>42.0</ele><time>2026-04-27T17:07:33.972Z</time></trkpt><trkpt lat="43.77638" lon="11.2272833"><ele>42.166666666666664</ele><time>2026-04-27T17:07:35.972Z</time></trkpt><trkpt lat="43.7763383" lon="11.2273717"><ele>42.333333333333336</ele><time>2026-04-27T17:07:37.972Z</time></trkpt><trkpt lat="43.776305" lon="11.2274667"><ele>42.5</ele><time>2026-04-27T17:07:39.972Z</time></trkpt><trkpt lat="43.7762733" lon="11.2275717"><ele>42.66666666666667</ele><time>2026-04-27T17:07:41.972Z</time></trkpt><trkpt lat="43.7762433" lon="11.2276833"><ele>42.833333333333336</ele><time>2026-04-27T17:07:43.972Z</time></trkpt><trkpt lat="43.7762133" lon="11.227795"><ele>43.0</ele><time>2026-04-27T17:07:45.972Z</time></trkpt><trkpt lat="43.7761833" lon="11.2279117"><ele>43.0</ele><time>2026-04-27T17:07:47.972Z</time></trkpt><trkpt lat="43.7761433" lon="11.2280233"><ele>43.0</ele><time>2026-04-27T17:07:49.972Z</time></trkpt><trkpt lat="43.7761083" lon="11.2281267"><ele>43.0</ele><time>2026-04-27T17:07:51.972Z</time></trkpt><trkpt lat="43.7760617" lon="11.2282317"><ele>43.0</ele><time>2026-04-27T17:07:53.973Z</time></trkpt><trkpt lat="43.77601" lon="11.228335"><ele>43.0</ele><time>2026-04-27T17:07:55.972Z</time></trkpt><trkpt lat="43.7759683" lon="11.2284467"><ele>43.0</ele><time>2026-04-27T17:07:57.972Z</time></trkpt><trkpt lat="43.7759333" lon="11.228535"><ele>43.0</ele><time>2026-04-27T17:07:59.972Z</time></trkpt><trkpt lat="43.7758983" lon="11.228655"><ele>43.0</ele><time>2026-04-27T17:08:02.973Z</time></trkpt><trkpt lat="43.7758783" lon="11.2287633"><ele>43.0</ele><time>2026-04-27T17:08:05.972Z</time></trkpt><trkpt lat="43.775875" lon="11.2288767"><ele>43.0</ele><time>2026-04-27T17:08:08.972Z</time></trkpt><trkpt lat="43.7759083" lon="11.2289683"><ele>43.0</ele><time>2026-04-27T17:08:11.972Z</time></trkpt><trkpt lat="43.7759817" lon="11.2290467"><ele>43.0</ele><time>2026-04-27T17:08:14.973Z</time></trkpt><trkpt lat="43.77606" lon="11.2291167"><ele>42.833333333333336</ele><time>2026-04-27T17:08:17.972Z</time></trkpt><trkpt lat="43.7761133" lon="11.2291667"><ele>42.66666666666667</ele><time>2026-04-27T17:08:19.973Z</time></trkpt><trkpt lat="43.7761783" lon="11.2292117"><ele>42.5</ele><time>2026-04-27T17:08:21.973Z</time></trkpt><trkpt lat="43.7762333" lon="11.2292617"><ele>42.333333333333336</ele><time>2026-04-27T17:08:23.973Z</time></trkpt><trkpt lat="43.7763083" lon="11.22933"><ele>42.166666666666664</ele><time>2026-04-27T17:08:26.972Z</time></trkpt><trkpt lat="43.7763867" lon="11.2293983"><ele>42.0</ele><time>2026-04-27T17:08:29.972Z</time></trkpt><trkpt lat="43.776445" lon="11.229445"><ele>42.0</ele><time>2026-04-27T17:08:31.972Z</time></trkpt><trkpt lat="43.776505" lon="11.2294917"><ele>42.0</ele><time>2026-04-27T17:08:33.972Z</time></trkpt><trkpt lat="43.7765667" lon="11.2295367"><ele>42.0</ele><time>2026-04-27T17:08:35.972Z</time></trkpt><trkpt lat="43.776635" lon="11.2295933"><ele>42.0</ele><time>2026-04-27T17:08:37.973Z</time></trkpt><trkpt lat="43.7767133" lon="11.229665"><ele>42.0</ele><time>2026-04-27T17:08:39.972Z</time></trkpt><trkpt lat="43.776795" lon="11.229745"><ele>42.0</ele><time>2026-04-27T17:08:41.972Z</time></trkpt><trkpt lat="43.7768717" lon="11.22984"><ele>42.2</ele><time>2026-04-27T17:08:43.972Z</time></trkpt><trkpt lat="43.7769083" lon="11.2299733"><ele>42.400000000000006</ele><time>2026-04-27T17:08:45.972Z</time></trkpt><trkpt lat="43.7769133" lon="11.2301367"><ele>42.599999999999994</ele><time>2026-04-27T17:08:47.972Z</time></trkpt><trkpt lat="43.7768883" lon="11.2302267"><ele>42.8</ele><time>2026-04-27T17:08:48.972Z</time></trkpt><trkpt lat="43.77686" lon="11.2303133"><ele>43.0</ele><time>2026-04-27T17:08:49.973Z</time></trkpt><trkpt lat="43.7768" lon="11.2304667"><ele>43.0</ele><time>2026-04-27T17:08:51.972Z</time></trkpt><trkpt lat="43.7767483" lon="11.2306033"><ele>43.0</ele><time>2026-04-27T17:08:53.972Z</time></trkpt><trkpt lat="43.7767117" lon="11.2307383"><ele>43.0</ele><time>2026-04-27T17:08:55.972Z</time></trkpt><trkpt lat="43.776655" lon="11.2308933"><ele>43.0</ele><time>2026-04-27T17:08:57.972Z</time></trkpt><trkpt lat="43.776615" lon="11.231025"><ele>43.0</ele><time>2026-04-27T17:08:59.972Z</time></trkpt><trkpt lat="43.776585" lon="11.2311433"><ele>43.16666666666667</ele><time>2026-04-27T17:09:01.972Z</time></trkpt><trkpt lat="43.7765533" lon="11.23126"><ele>43.333333333333336</ele><time>2026-04-27T17:09:03.972Z</time></trkpt><trkpt lat="43.7765233" lon="11.2313583"><ele>43.5</ele><time>2026-04-27T17:09:05.972Z</time></trkpt><trkpt lat="43.7765067" lon="11.23145"><ele>43.666666666666664</ele><time>2026-04-27T17:09:07.973Z</time></trkpt><trkpt lat="43.7764783" lon="11.2315317"><ele>43.83333333333333</ele><time>2026-04-27T17:09:09.973Z</time></trkpt><trkpt lat="43.7764483" lon="11.231635"><ele>44.0</ele><time>2026-04-27T17:09:11.972Z</time></trkpt><trkpt lat="43.7764017" lon="11.231765"><ele>44.800000000000004</ele><time>2026-04-27T17:09:13.972Z</time></trkpt><trkpt lat="43.776365" lon="11.2318717"><ele>45.6</ele><time>2026-04-27T17:09:15.972Z</time></trkpt><trkpt lat="43.7763367" lon="11.23199"><ele>46.4</ele><time>2026-04-27T17:09:17.972Z</time></trkpt><trkpt lat="43.7763083" lon="11.23211"><ele>47.2</ele><time>2026-04-27T17:09:19.972Z</time></trkpt><trkpt lat="43.776275" lon="11.2322367"><ele>48.0</ele><time>2026-04-27T17:09:21.972Z</time></trkpt><trkpt lat="43.7762467" lon="11.2323567"><ele>48.4</ele><time>2026-04-27T17:09:23.972Z</time></trkpt><trkpt lat="43.7762133" lon="11.232475"><ele>48.8</ele><time>2026-04-27T17:09:25.972Z</time></trkpt><trkpt lat="43.7761767" lon="11.2325983"><ele>49.2</ele><time>2026-04-27T17:09:27.972Z</time></trkpt><trkpt lat="43.77613" lon="11.2327233"><ele>49.6</ele><time>2026-04-27T17:09:29.972Z</time></trkpt><trkpt lat="43.7760967" lon="11.2328433"><ele>50.0</ele><time>2026-04-27T17:09:31.972Z</time></trkpt><trkpt lat="43.7760617" lon="11.2329733"><ele>50.0</ele><time>2026-04-27T17:09:33.972Z</time></trkpt><trkpt lat="43.7760317" lon="11.233105"><ele>50.0</ele><time>2026-04-27T17:09:35.971Z</time></trkpt><trkpt lat="43.7760133" lon="11.2332167"><ele>50.0</ele><time>2026-04-27T17:09:37.971Z</time></trkpt><trkpt lat="43.7759683" lon="11.2333633"><ele>50.0</ele><time>2026-04-27T17:09:39.971Z</time></trkpt><trkpt lat="43.7759367" lon="11.2334883"><ele>50.0</ele><time>2026-04-27T17:09:41.971Z</time></trkpt><trkpt lat="43.7759017" lon="11.2336033"><ele>49.00000000000001</ele><time>2026-04-27T17:09:43.971Z</time></trkpt><trkpt lat="43.7758733" lon="11.233725"><ele>48.0</ele><time>2026-04-27T17:09:45.971Z</time></trkpt><trkpt lat="43.7758567" lon="11.2338433"><ele>47.0</ele><time>2026-04-27T17:09:47.971Z</time></trkpt><trkpt lat="43.7758383" lon="11.2339567"><ele>46.0</ele><time>2026-04-27T17:09:49.971Z</time></trkpt><trkpt lat="43.7758133" lon="11.2340733"><ele>45.0</ele><time>2026-04-27T17:09:51.971Z</time></trkpt><trkpt lat="43.7758083" lon="11.234185"><ele>44.0</ele><time>2026-04-27T17:09:53.971Z</time></trkpt><trkpt lat="43.7758017" lon="11.234325"><ele>44.0</ele><time>2026-04-27T17:09:55.971Z</time></trkpt><trkpt lat="43.7758233" lon="11.2344367"><ele>44.0</ele><time>2026-04-27T17:09:57.971Z</time></trkpt><trkpt lat="43.775845" lon="11.2345233"><ele>44.0</ele><time>2026-04-27T17:09:59.971Z</time></trkpt><trkpt lat="43.775875" lon="11.23461"><ele>44.0</ele><time>2026-04-27T17:10:01.971Z</time></trkpt><trkpt lat="43.7759117" lon="11.2347033"><ele>44.0</ele><time>2026-04-27T17:10:03.971Z</time></trkpt><trkpt lat="43.7759517" lon="11.23479"><ele>44.0</ele><time>2026-04-27T17:10:05.971Z</time></trkpt><trkpt lat="43.775995" lon="11.2348733"><ele>44.0</ele><time>2026-04-27T17:10:07.972Z</time></trkpt><trkpt lat="43.7760317" lon="11.234955"><ele>44.0</ele><time>2026-04-27T17:10:09.971Z</time></trkpt><trkpt lat="43.7760683" lon="11.235045"><ele>44.0</ele><time>2026-04-27T17:10:11.971Z</time></trkpt><trkpt lat="43.7760783" lon="11.2351633"><ele>44.0</ele><time>2026-04-27T17:10:14.971Z</time></trkpt><trkpt lat="43.7760917" lon="11.2352617"><ele>44.0</ele><time>2026-04-27T17:10:16.971Z</time></trkpt><trkpt lat="43.776075" lon="11.2353933"><ele>44.0</ele><time>2026-04-27T17:10:19.971Z</time></trkpt><trkpt lat="43.7760567" lon="11.2354833"><ele>44.0</ele><time>2026-04-27T17:10:21.971Z</time></trkpt><trkpt lat="43.7760267" lon="11.2355733"><ele>44.33333333333333</ele><time>2026-04-27T17:10:23.971Z</time></trkpt><trkpt lat="43.775995" lon="11.235665"><ele>44.666666666666664</ele><time>2026-04-27T17:10:25.972Z</time></trkpt><trkpt lat="43.7759717" lon="11.23576"><ele>45.0</ele><time>2026-04-27T17:10:27.971Z</time></trkpt><trkpt lat="43.7759383" lon="11.2358817"><ele>45.333333333333336</ele><time>2026-04-27T17:10:30.971Z</time></trkpt><trkpt lat="43.7759083" lon="11.235985"><ele>45.66666666666667</ele><time>2026-04-27T17:10:33.971Z</time></trkpt><trkpt lat="43.775875" lon="11.236085"><ele>46.0</ele><time>2026-04-27T17:10:36.972Z</time></trkpt><trkpt lat="43.7758583" lon="11.2361933"><ele>46.0</ele><time>2026-04-27T17:10:39.971Z</time></trkpt><trkpt lat="43.7758567" lon="11.236305"><ele>46.0</ele><time>2026-04-27T17:10:42.971Z</time></trkpt><trkpt lat="43.7758417" lon="11.2364033"><ele>46.0</ele><time>2026-04-27T17:10:44.971Z</time></trkpt><trkpt lat="43.7758183" lon="11.2365083"><ele>46.0</ele><time>2026-04-27T17:10:46.971Z</time></trkpt><trkpt lat="43.7757783" lon="11.2366167"><ele>46.0</ele><time>2026-04-27T17:10:48.971Z</time></trkpt><trkpt lat="43.7757233" lon="11.2366817"><ele>46.0</ele><time>2026-04-27T17:10:50.971Z</time></trkpt><trkpt lat="43.7756617" lon="11.23671"><ele>46.16666666666667</ele><time>2026-04-27T17:10:52.971Z</time></trkpt><trkpt lat="43.7755933" lon="11.23671"><ele>46.333333333333336</ele><time>2026-04-27T17:10:54.971Z</time></trkpt><trkpt lat="43.7755" lon="11.236685"><ele>46.5</ele><time>2026-04-27T17:10:57.971Z</time></trkpt><trkpt lat="43.7754233" lon="11.2366683"><ele>46.666666666666664</ele><time>2026-04-27T17:10:59.971Z</time></trkpt><trkpt lat="43.7753483" lon="11.236635"><ele>46.83333333333333</ele><time>2026-04-27T17:11:01.971Z</time></trkpt><trkpt lat="43.7752833" lon="11.23661"><ele>47.0</ele><time>2026-04-27T17:11:03.971Z</time></trkpt><trkpt lat="43.775175" lon="11.2365867"><ele>47.166666666666664</ele><time>2026-04-27T17:11:06.971Z</time></trkpt><trkpt lat="43.7751017" lon="11.23653"><ele>47.33333333333333</ele><time>2026-04-27T17:11:08.971Z</time></trkpt><trkpt lat="43.775035" lon="11.2364967"><ele>47.5</ele><time>2026-04-27T17:11:10.971Z</time></trkpt><trkpt lat="43.7749733" lon="11.2365617"><ele>47.666666666666664</ele><time>2026-04-27T17:11:13.971Z</time></trkpt><trkpt lat="43.7749317" lon="11.2366733"><ele>47.833333333333336</ele><time>2026-04-27T17:11:16.971Z</time></trkpt><trkpt lat="43.7749133" lon="11.2367767"><ele>48.0</ele><time>2026-04-27T17:11:18.971Z</time></trkpt><trkpt lat="43.7748867" lon="11.236865"><ele>48.0</ele><time>2026-04-27T17:11:20.971Z</time></trkpt><trkpt lat="43.7748667" lon="11.2369633"><ele>48.0</ele><time>2026-04-27T17:11:22.972Z</time></trkpt><trkpt lat="43.77483" lon="11.237095"><ele>48.0</ele><time>2026-04-27T17:11:24.971Z</time></trkpt><trkpt lat="43.7748033" lon="11.2372183"><ele>48.0</ele><time>2026-04-27T17:11:26.971Z</time></trkpt><trkpt lat="43.7747583" lon="11.237345"><ele>48.0</ele><time>2026-04-27T17:11:28.971Z</time></trkpt><trkpt lat="43.77471" lon="11.2374517"><ele>48.599999999999994</ele><time>2026-04-27T17:11:30.971Z</time></trkpt><trkpt lat="43.77468" lon="11.2375683"><ele>49.199999999999996</ele><time>2026-04-27T17:11:33.971Z</time></trkpt><trkpt lat="43.7746683" lon="11.23767"><ele>49.8</ele><time>2026-04-27T17:11:35.971Z</time></trkpt><trkpt lat="43.774655" lon="11.2377883"><ele>50.4</ele><time>2026-04-27T17:11:37.972Z</time></trkpt><trkpt lat="43.7746433" lon="11.23792"><ele>51.0</ele><time>2026-04-27T17:11:40.971Z</time></trkpt><trkpt lat="43.7746" lon="11.238095"><ele>51.199999999999996</ele><time>2026-04-27T17:11:42.971Z</time></trkpt><trkpt lat="43.774565" lon="11.2381717"><ele>51.4</ele><time>2026-04-27T17:11:43.971Z</time></trkpt><trkpt lat="43.77452" lon="11.2382917"><ele>51.6</ele><time>2026-04-27T17:11:45.971Z</time></trkpt><trkpt lat="43.7745017" lon="11.2384283"><ele>51.8</ele><time>2026-04-27T17:11:47.971Z</time></trkpt><trkpt lat="43.77442" lon="11.238625"><ele>52.0</ele><time>2026-04-27T17:11:49.971Z</time></trkpt><trkpt lat="43.77437" lon="11.2387033"><ele>51.6</ele><time>2026-04-27T17:11:50.972Z</time></trkpt><trkpt lat="43.7743267" lon="11.2388567"><ele>51.2</ele><time>2026-04-27T17:11:52.971Z</time></trkpt><trkpt lat="43.7742867" lon="11.2389867"><ele>50.8</ele><time>2026-04-27T17:11:54.971Z</time></trkpt><trkpt lat="43.7742567" lon="11.2390933"><ele>50.4</ele><time>2026-04-27T17:11:56.971Z</time></trkpt><trkpt lat="43.7742133" lon="11.2391867"><ele>50.0</ele><time>2026-04-27T17:11:58.972Z</time></trkpt><trkpt lat="43.7741733" lon="11.239265"><ele>50.00000000000001</ele><time>2026-04-27T17:12:00.971Z</time></trkpt><trkpt lat="43.77414" lon="11.239345"><ele>50.0</ele><time>2026-04-27T17:12:02.971Z</time></trkpt><trkpt lat="43.7740983" lon="11.2394283"><ele>50.0</ele><time>2026-04-27T17:12:04.971Z</time></trkpt><trkpt lat="43.77406" lon="11.2395067"><ele>50.0</ele><time>2026-04-27T17:12:06.971Z</time></trkpt><trkpt lat="43.77403" lon="11.2395967"><ele>50.0</ele><time>2026-04-27T17:12:08.971Z</time></trkpt><trkpt lat="43.7740033" lon="11.23968"><ele>50.00000000000001</ele><time>2026-04-27T17:12:10.972Z</time></trkpt><trkpt lat="43.7739533" lon="11.2397833"><ele>50.0</ele><time>2026-04-27T17:12:12.971Z</time></trkpt><trkpt lat="43.7739217" lon="11.23986"><ele>50.333333333333336</ele><time>2026-04-27T17:12:14.971Z</time></trkpt><trkpt lat="43.7738833" lon="11.2399667"><ele>50.66666666666667</ele><time>2026-04-27T17:12:16.971Z</time></trkpt><trkpt lat="43.77385" lon="11.2400817"><ele>51.0</ele><time>2026-04-27T17:12:18.971Z</time></trkpt><trkpt lat="43.773815" lon="11.2401867"><ele>51.33333333333333</ele><time>2026-04-27T17:12:20.971Z</time></trkpt><trkpt lat="43.77377" lon="11.2403017"><ele>51.666666666666664</ele><time>2026-04-27T17:12:22.971Z</time></trkpt><trkpt lat="43.773735" lon="11.2404233"><ele>52.0</ele><time>2026-04-27T17:12:24.971Z</time></trkpt><trkpt lat="43.7737117" lon="11.2405333"><ele>51.83333333333333</ele><time>2026-04-27T17:12:26.971Z</time></trkpt><trkpt lat="43.773675" lon="11.240635"><ele>51.666666666666664</ele><time>2026-04-27T17:12:28.971Z</time></trkpt><trkpt lat="43.773645" lon="11.2407433"><ele>51.5</ele><time>2026-04-27T17:12:30.971Z</time></trkpt><trkpt lat="43.773605" lon="11.2408483"><ele>51.33333333333333</ele><time>2026-04-27T17:12:32.971Z</time></trkpt><trkpt lat="43.7735633" lon="11.2409617"><ele>51.166666666666664</ele><time>2026-04-27T17:12:34.971Z</time></trkpt><trkpt lat="43.7735217" lon="11.2410533"><ele>51.0</ele><time>2026-04-27T17:12:36.971Z</time></trkpt><trkpt lat="43.7734867" lon="11.2411533"><ele>50.0</ele><time>2026-04-27T17:12:38.971Z</time></trkpt><trkpt lat="43.773455" lon="11.2412483"><ele>49.0</ele><time>2026-04-27T17:12:40.971Z</time></trkpt><trkpt lat="43.7734183" lon="11.2413483"><ele>48.0</ele><time>2026-04-27T17:12:42.971Z</time></trkpt><trkpt lat="43.7733833" lon="11.2414567"><ele>47.0</ele><time>2026-04-27T17:12:44.971Z</time></trkpt><trkpt lat="43.7733483" lon="11.2415667"><ele>46.0</ele><time>2026-04-27T17:12:46.972Z</time></trkpt><trkpt lat="43.7733017" lon="11.2416733"><ele>45.0</ele><time>2026-04-27T17:12:48.971Z</time></trkpt><trkpt lat="43.773255" lon="11.241765"><ele>44.833333333333336</ele><time>2026-04-27T17:12:50.971Z</time></trkpt><trkpt lat="43.7732083" lon="11.2418617"><ele>44.666666666666664</ele><time>2026-04-27T17:12:52.971Z</time></trkpt><trkpt lat="43.7731933" lon="11.2419517"><ele>44.5</ele><time>2026-04-27T17:12:54.971Z</time></trkpt><trkpt lat="43.7731633" lon="11.24206"><ele>44.33333333333333</ele><time>2026-04-27T17:12:56.972Z</time></trkpt><trkpt lat="43.7731283" lon="11.2421817"><ele>44.166666666666664</ele><time>2026-04-27T17:12:58.971Z</time></trkpt><trkpt lat="43.7731017" lon="11.24229"><ele>44.0</ele><time>2026-04-27T17:13:00.971Z</time></trkpt><trkpt lat="43.7730517" lon="11.24243"><ele>45.166666666666664</ele><time>2026-04-27T17:13:02.971Z</time></trkpt><trkpt lat="43.773" lon="11.2424883"><ele>46.33333333333333</ele><time>2026-04-27T17:13:05.971Z</time></trkpt><trkpt lat="43.7729583" lon="11.2425967"><ele>47.5</ele><time>2026-04-27T17:13:08.971Z</time></trkpt><trkpt lat="43.772925" lon="11.2427"><ele>48.666666666666664</ele><time>2026-04-27T17:13:10.971Z</time></trkpt><trkpt lat="43.7728933" lon="11.2427867"><ele>49.833333333333336</ele><time>2026-04-27T17:13:12.971Z</time></trkpt><trkpt lat="43.77286" lon="11.2428917"><ele>51.0</ele><time>2026-04-27T17:13:14.971Z</time></trkpt><trkpt lat="43.7728167" lon="11.2430117"><ele>51.0</ele><time>2026-04-27T17:13:16.971Z</time></trkpt><trkpt lat="43.772785" lon="11.24311"><ele>51.0</ele><time>2026-04-27T17:13:18.971Z</time></trkpt><trkpt lat="43.7727433" lon="11.243195"><ele>51.0</ele><time>2026-04-27T17:13:20.971Z</time></trkpt><trkpt lat="43.7727117" lon="11.2432833"><ele>51.0</ele><time>2026-04-27T17:13:22.971Z</time></trkpt><trkpt lat="43.7726817" lon="11.2433733"><ele>51.0</ele><time>2026-04-27T17:13:24.971Z</time></trkpt><trkpt lat="43.7726417" lon="11.243455"><ele>51.0</ele><time>2026-04-27T17:13:26.971Z</time></trkpt><trkpt lat="43.7726" lon="11.2435433"><ele>51.0</ele><time>2026-04-27T17:13:28.971Z</time></trkpt><trkpt lat="43.7725533" lon="11.2436467"><ele>50.199999999999996</ele><time>2026-04-27T17:13:30.971Z</time></trkpt><trkpt lat="43.7725133" lon="11.2437467"><ele>49.4</ele><time>2026-04-27T17:13:32.971Z</time></trkpt><trkpt lat="43.7724717" lon="11.2438833"><ele>48.6</ele><time>2026-04-27T17:13:34.971Z</time></trkpt><trkpt lat="43.77242" lon="11.244005"><ele>47.8</ele><time>2026-04-27T17:13:36.971Z</time></trkpt><trkpt lat="43.7723733" lon="11.2441333"><ele>47.0</ele><time>2026-04-27T17:13:38.971Z</time></trkpt><trkpt lat="43.7723333" lon="11.2442717"><ele>48.400000000000006</ele><time>2026-04-27T17:13:40.971Z</time></trkpt><trkpt lat="43.7722883" lon="11.244395"><ele>49.800000000000004</ele><time>2026-04-27T17:13:42.971Z</time></trkpt><trkpt lat="43.772245" lon="11.2445167"><ele>51.2</ele><time>2026-04-27T17:13:44.971Z</time></trkpt><trkpt lat="43.77219" lon="11.2446383"><ele>52.6</ele><time>2026-04-27T17:13:46.971Z</time></trkpt><trkpt lat="43.7721333" lon="11.2447683"><ele>54.0</ele><time>2026-04-27T17:13:48.971Z</time></trkpt><trkpt lat="43.7720867" lon="11.2448933"><ele>54.0</ele><time>2026-04-27T17:13:50.971Z</time></trkpt><trkpt lat="43.772045" lon="11.2450183"><ele>54.0</ele><time>2026-04-27T17:13:52.971Z</time></trkpt><trkpt lat="43.7719983" lon="11.2451233"><ele>54.0</ele><time>2026-04-27T17:13:54.971Z</time></trkpt><trkpt lat="43.77194" lon="11.2452233"><ele>54.0</ele><time>2026-04-27T17:13:56.971Z</time></trkpt><trkpt lat="43.77189" lon="11.2453183"><ele>54.0</ele><time>2026-04-27T17:13:58.971Z</time></trkpt><trkpt lat="43.7718483" lon="11.2454"><ele>54.0</ele><time>2026-04-27T17:14:00.971Z</time></trkpt><trkpt lat="43.77181" lon="11.2454717"><ele>54.2</ele><time>2026-04-27T17:14:02.97Z</time></trkpt><trkpt lat="43.771755" lon="11.24557"><ele>54.400000000000006</ele><time>2026-04-27T17:14:04.97Z</time></trkpt><trkpt lat="43.77172" lon="11.2456967"><ele>54.6</ele><time>2026-04-27T17:14:06.97Z</time></trkpt><trkpt lat="43.7716783" lon="11.2458017"><ele>54.8</ele><time>2026-04-27T17:14:08.97Z</time></trkpt><trkpt lat="43.771645" lon="11.245915"><ele>55.0</ele><time>2026-04-27T17:14:10.97Z</time></trkpt><trkpt lat="43.7716183" lon="11.2460383"><ele>55.33333333333333</ele><time>2026-04-27T17:14:12.97Z</time></trkpt><trkpt lat="43.7715833" lon="11.246145"><ele>55.666666666666664</ele><time>2026-04-27T17:14:14.97Z</time></trkpt><trkpt lat="43.771545" lon="11.2462417"><ele>56.0</ele><time>2026-04-27T17:14:16.97Z</time></trkpt><trkpt lat="43.7714933" lon="11.24633"><ele>56.33333333333333</ele><time>2026-04-27T17:14:18.97Z</time></trkpt><trkpt lat="43.7714583" lon="11.246425"><ele>56.666666666666664</ele><time>2026-04-27T17:14:20.97Z</time></trkpt><trkpt lat="43.7714267" lon="11.2465083"><ele>57.0</ele><time>2026-04-27T17:14:22.97Z</time></trkpt><trkpt lat="43.771385" lon="11.2465983"><ele>57.0</ele><time>2026-04-27T17:14:24.97Z</time></trkpt><trkpt lat="43.771345" lon="11.24669"><ele>57.0</ele><time>2026-04-27T17:14:26.97Z</time></trkpt><trkpt lat="43.771305" lon="11.246775"><ele>57.0</ele><time>2026-04-27T17:14:28.97Z</time></trkpt><trkpt lat="43.7712533" lon="11.2468767"><ele>57.0</ele><time>2026-04-27T17:14:30.971Z</time></trkpt><trkpt lat="43.7711933" lon="11.246975"><ele>57.0</ele><time>2026-04-27T17:14:32.97Z</time></trkpt><trkpt lat="43.7711517" lon="11.2470833"><ele>57.0</ele><time>2026-04-27T17:14:34.971Z</time></trkpt><trkpt lat="43.7711133" lon="11.2471933"><ele>57.0</ele><time>2026-04-27T17:14:36.971Z</time></trkpt><trkpt lat="43.7710717" lon="11.2472917"><ele>57.0</ele><time>2026-04-27T17:14:38.97Z</time></trkpt><trkpt lat="43.771025" lon="11.247385"><ele>57.0</ele><time>2026-04-27T17:14:40.971Z</time></trkpt><trkpt lat="43.7709817" lon="11.2474917"><ele>57.0</ele><time>2026-04-27T17:14:42.97Z</time></trkpt><trkpt lat="43.7709317" lon="11.2475717"><ele>57.0</ele><time>2026-04-27T17:14:44.971Z</time></trkpt><trkpt lat="43.7708783" lon="11.247645"><ele>57.0</ele><time>2026-04-27T17:14:47.97Z</time></trkpt><trkpt lat="43.7708417" lon="11.2477283"><ele>56.5</ele><time>2026-04-27T17:14:51.97Z</time></trkpt><trkpt lat="43.7708583" lon="11.24783"><ele>56.0</ele><time>2026-04-27T17:14:54.97Z</time></trkpt><trkpt lat="43.7709017" lon="11.2479483"><ele>55.5</ele><time>2026-04-27T17:14:57.97Z</time></trkpt><trkpt lat="43.7709083" lon="11.2480567"><ele>55.0</ele><time>2026-04-27T17:14:59.97Z</time></trkpt><trkpt lat="43.7708833" lon="11.248195"><ele>54.5</ele><time>2026-04-27T17:15:01.97Z</time></trkpt><trkpt lat="43.7708833" lon="11.2483283"><ele>54.0</ele><time>2026-04-27T17:15:03.97Z</time></trkpt><trkpt lat="43.7709067" lon="11.2484333"><ele>54.0</ele><time>2026-04-27T17:15:05.97Z</time></trkpt><trkpt lat="43.77091" lon="11.2485367"><ele>54.00000000000001</ele><time>2026-04-27T17:15:07.97Z</time></trkpt><trkpt lat="43.7710467" lon="11.248565"><ele>54.00000000000001</ele><time>2026-04-27T17:15:09.97Z</time></trkpt><trkpt lat="43.77114" lon="11.2486433"><ele>54.0</ele><time>2026-04-27T17:15:12.97Z</time></trkpt><trkpt lat="43.77125" lon="11.248695"><ele>54.0</ele><time>2026-04-27T17:15:14.97Z</time></trkpt><trkpt lat="43.77131" lon="11.2488"><ele>54.6</ele><time>2026-04-27T17:15:16.97Z</time></trkpt><trkpt lat="43.7713017" lon="11.2489267"><ele>55.2</ele><time>2026-04-27T17:15:18.97Z</time></trkpt><trkpt lat="43.7712733" lon="11.2490067"><ele>55.800000000000004</ele><time>2026-04-27T17:15:19.97Z</time></trkpt><trkpt lat="43.7713183" lon="11.2491917"><ele>56.400000000000006</ele><time>2026-04-27T17:15:23.97Z</time></trkpt><trkpt lat="43.7714067" lon="11.2492083"><ele>57.0</ele><time>2026-04-27T17:15:26.97Z</time></trkpt><trkpt lat="43.7713667" lon="11.2493233"><ele>57.0</ele><time>2026-04-27T17:15:28.97Z</time></trkpt><trkpt lat="43.7713367" lon="11.2494583"><ele>57.0</ele><time>2026-04-27T17:15:30.97Z</time></trkpt><trkpt lat="43.7713167" lon="11.2495467"><ele>57.0</ele><time>2026-04-27T17:15:31.97Z</time></trkpt><trkpt lat="43.7713217" lon="11.249705"><ele>57.0</ele><time>2026-04-27T17:15:33.97Z</time></trkpt><trkpt lat="43.77129" lon="11.2498483"><ele>57.0</ele><time>2026-04-27T17:15:35.97Z</time></trkpt><trkpt lat="43.7713083" lon="11.2499783"><ele>57.0</ele><time>2026-04-27T17:15:37.97Z</time></trkpt><trkpt lat="43.771305" lon="11.2500767"><ele>57.0</ele><time>2026-04-27T17:15:38.97Z</time></trkpt><trkpt lat="43.77134" lon="11.2501983"><ele>57.0</ele><time>2026-04-27T17:15:40.97Z</time></trkpt><trkpt lat="43.7713317" lon="11.2503133"><ele>57.0</ele><time>2026-04-27T17:15:42.97Z</time></trkpt><trkpt lat="43.7713233" lon="11.2504133"><ele>57.0</ele><time>2026-04-27T17:15:44.97Z</time></trkpt><trkpt lat="43.77131" lon="11.2505"><ele>57.0</ele><time>2026-04-27T17:15:46.97Z</time></trkpt><trkpt lat="43.7712917" lon="11.2506117"><ele>58.0</ele><time>2026-04-27T17:15:49.97Z</time></trkpt><trkpt lat="43.7712667" lon="11.250705"><ele>59.0</ele><time>2026-04-27T17:15:51.97Z</time></trkpt><trkpt lat="43.7713" lon="11.2508033"><ele>60.0</ele><time>2026-04-27T17:15:54.97Z</time></trkpt><trkpt lat="43.77134" lon="11.250915"><ele>61.0</ele><time>2026-04-27T17:15:57.97Z</time></trkpt><trkpt lat="43.771405" lon="11.2509717"><ele>62.0</ele><time>2026-04-27T17:15:59.97Z</time></trkpt><trkpt lat="43.7714267" lon="11.251065"><ele>63.0</ele><time>2026-04-27T17:16:01.97Z</time></trkpt><trkpt lat="43.7714517" lon="11.2511517"><ele>63.0</ele><time>2026-04-27T17:16:03.97Z</time></trkpt><trkpt lat="43.7714517" lon="11.251265"><ele>63.0</ele><time>2026-04-27T17:16:05.97Z</time></trkpt><trkpt lat="43.771455" lon="11.25137"><ele>63.0</ele><time>2026-04-27T17:16:07.97Z</time></trkpt><trkpt lat="43.771445" lon="11.2514983"><ele>63.0</ele><time>2026-04-27T17:16:09.97Z</time></trkpt><trkpt lat="43.7714617" lon="11.251625"><ele>63.0</ele><time>2026-04-27T17:16:11.97Z</time></trkpt><trkpt lat="43.7714683" lon="11.2517367"><ele>63.0</ele><time>2026-04-27T17:16:13.97Z</time></trkpt><trkpt lat="43.7716183" lon="11.2517633"><ele>63.2</ele><time>2026-04-27T17:16:14.97Z</time></trkpt><trkpt lat="43.7716283" lon="11.2519183"><ele>63.4</ele><time>2026-04-27T17:16:16.97Z</time></trkpt><trkpt lat="43.7715483" lon="11.2520483"><ele>63.60000000000001</ele><time>2026-04-27T17:16:17.97Z</time></trkpt><trkpt lat="43.771525" lon="11.252145"><ele>63.800000000000004</ele><time>2026-04-27T17:16:18.97Z</time></trkpt><trkpt lat="43.7715183" lon="11.2522317"><ele>64.0</ele><time>2026-04-27T17:16:20.97Z</time></trkpt><trkpt lat="43.77156" lon="11.252335"><ele>63.99999999999999</ele><time>2026-04-27T17:16:23.971Z</time></trkpt><trkpt lat="43.7715733" lon="11.252435"><ele>64.0</ele><time>2026-04-27T17:16:25.97Z</time></trkpt><trkpt lat="43.7716233" lon="11.2525383"><ele>64.0</ele><time>2026-04-27T17:16:27.97Z</time></trkpt><trkpt lat="43.7716533" lon="11.252645"><ele>64.0</ele><time>2026-04-27T17:16:30.97Z</time></trkpt><trkpt lat="43.7716767" lon="11.25276"><ele>63.99999999999999</ele><time>2026-04-27T17:16:33.97Z</time></trkpt><trkpt lat="43.7717017" lon="11.25289"><ele>64.0</ele><time>2026-04-27T17:16:36.971Z</time></trkpt><trkpt lat="43.77169" lon="11.2529883"><ele>63.99999999999999</ele><time>2026-04-27T17:16:38.97Z</time></trkpt><trkpt lat="43.7717017" lon="11.2530883"><ele>64.0</ele><time>2026-04-27T17:16:40.97Z</time></trkpt><trkpt lat="43.771695" lon="11.2531883"><ele>64.0</ele><time>2026-04-27T17:16:42.97Z</time></trkpt><trkpt lat="43.7716133" lon="11.2532917"><ele>64.0</ele><time>2026-04-27T17:16:44.97Z</time></trkpt><trkpt lat="43.7715933" lon="11.2534"><ele>63.99999999999999</ele><time>2026-04-27T17:16:47.97Z</time></trkpt><trkpt lat="43.7716217" lon="11.253505"><ele>64.0</ele><time>2026-04-27T17:16:50.971Z</time></trkpt><trkpt lat="43.77165" lon="11.25359"><ele>63.99999999999999</ele><time>2026-04-27T17:16:52.97Z</time></trkpt><trkpt lat="43.77169" lon="11.2536883"><ele>64.0</ele><time>2026-04-27T17:16:54.97Z</time></trkpt><trkpt lat="43.7717183" lon="11.2537967"><ele>64.0</ele><time>2026-04-27T17:16:56.97Z</time></trkpt><trkpt lat="43.77174" lon="11.2539167"><ele>64.0</ele><time>2026-04-27T17:16:59.97Z</time></trkpt><trkpt lat="43.771755" lon="11.25406"><ele>63.99999999999999</ele><time>2026-04-27T17:17:02.97Z</time></trkpt><trkpt lat="43.77175" lon="11.254175"><ele>64.0</ele><time>2026-04-27T17:17:04.97Z</time></trkpt><trkpt lat="43.7717567" lon="11.2543283"><ele>63.99999999999999</ele><time>2026-04-27T17:17:06.97Z</time></trkpt><trkpt lat="43.77178" lon="11.2544317"><ele>64.0</ele><time>2026-04-27T17:17:08.971Z</time></trkpt><trkpt lat="43.7718283" lon="11.2545133"><ele>64.0</ele><time>2026-04-27T17:17:11.97Z</time></trkpt><trkpt lat="43.771935" lon="11.25449"><ele>64.0</ele><time>2026-04-27T17:17:18.971Z</time></trkpt><trkpt lat="43.7719983" lon="11.2544767"><ele>63.99999999999999</ele><time>2026-04-27T17:17:20.97Z</time></trkpt><trkpt lat="43.7720683" lon="11.25446"><ele>64.0</ele><time>2026-04-27T17:17:22.97Z</time></trkpt><trkpt lat="43.7721317" lon="11.2544383"><ele>63.83333333333333</ele><time>2026-04-27T17:17:24.97Z</time></trkpt><trkpt lat="43.77219" lon="11.2545117"><ele>63.666666666666664</ele><time>2026-04-27T17:17:28.97Z</time></trkpt><trkpt lat="43.7722117" lon="11.2546433"><ele>63.5</ele><time>2026-04-27T17:17:32.97Z</time></trkpt><trkpt lat="43.7722317" lon="11.25476"><ele>63.33333333333333</ele><time>2026-04-27T17:17:35.97Z</time></trkpt><trkpt lat="43.77223" lon="11.2548717"><ele>63.166666666666664</ele><time>2026-04-27T17:17:37.97Z</time></trkpt><trkpt lat="43.7722067" lon="11.255005"><ele>63.0</ele><time>2026-04-27T17:17:40.97Z</time></trkpt><trkpt lat="43.7721733" lon="11.2551183"><ele>63.333333333333336</ele><time>2026-04-27T17:17:42.97Z</time></trkpt><trkpt lat="43.7721217" lon="11.25525"><ele>63.66666666666667</ele><time>2026-04-27T17:17:45.97Z</time></trkpt><trkpt lat="43.7720583" lon="11.255305"><ele>64.0</ele><time>2026-04-27T17:17:47.97Z</time></trkpt><trkpt lat="43.7720433" lon="11.2554117"><ele>64.33333333333334</ele><time>2026-04-27T17:17:50.97Z</time></trkpt><trkpt lat="43.77206" lon="11.25552"><ele>64.66666666666667</ele><time>2026-04-27T17:17:53.97Z</time></trkpt><trkpt lat="43.7721133" lon="11.255595"><ele>65.0</ele><time>2026-04-27T17:17:55.97Z</time></trkpt><trkpt lat="43.77213" lon="11.255685"><ele>66.2</ele><time>2026-04-27T17:17:57.97Z</time></trkpt><trkpt lat="43.7721433" lon="11.2558067"><ele>67.4</ele><time>2026-04-27T17:17:59.97Z</time></trkpt><trkpt lat="43.772095" lon="11.2558967"><ele>68.6</ele><time>2026-04-27T17:18:03.97Z</time></trkpt><trkpt lat="43.772195" lon="11.2558783"><ele>69.8</ele><time>2026-04-27T17:18:05.97Z</time></trkpt><trkpt lat="43.7723333" lon="11.2558833"><ele>71.0</ele><time>2026-04-27T17:18:10.969Z</time></trkpt><trkpt lat="43.77242" lon="11.255915"><ele>71.0</ele><time>2026-04-27T17:18:11.969Z</time></trkpt><trkpt lat="43.77251" lon="11.2559767"><ele>71.0</ele><time>2026-04-27T17:18:13.969Z</time></trkpt><trkpt lat="43.7726317" lon="11.256045"><ele>71.0</ele><time>2026-04-27T17:18:15.97Z</time></trkpt><trkpt lat="43.7726717" lon="11.2561167"><ele>71.0</ele><time>2026-04-27T17:18:17.97Z</time></trkpt><trkpt lat="43.772715" lon="11.25618"><ele>71.0</ele><time>2026-04-27T17:18:19.969Z</time></trkpt><trkpt lat="43.7727733" lon="11.25624"><ele>71.0</ele><time>2026-04-27T17:18:21.969Z</time></trkpt><trkpt lat="43.7728117" lon="11.2563383"><ele>69.42857142857143</ele><time>2026-04-27T17:18:23.969Z</time></trkpt><trkpt lat="43.7728367" lon="11.2564233"><ele>67.85714285714285</ele><time>2026-04-27T17:18:25.969Z</time></trkpt><trkpt lat="43.7728517" lon="11.2565133"><ele>66.28571428571428</ele><time>2026-04-27T17:18:27.97Z</time></trkpt><trkpt lat="43.7728317" lon="11.256645"><ele>64.71428571428571</ele><time>2026-04-27T17:18:30.969Z</time></trkpt><trkpt lat="43.7728" lon="11.2567467"><ele>63.14285714285714</ele><time>2026-04-27T17:18:33.969Z</time></trkpt><trkpt lat="43.772785" lon="11.2568433"><ele>61.57142857142857</ele><time>2026-04-27T17:18:36.969Z</time></trkpt><trkpt lat="43.7727483" lon="11.2569217"><ele>60.0</ele><time>2026-04-27T17:18:39.969Z</time></trkpt><trkpt lat="43.7727483" lon="11.2570167"><ele>60.0</ele><time>2026-04-27T17:18:42.97Z</time></trkpt><trkpt lat="43.772775" lon="11.2571433"><ele>60.0</ele><time>2026-04-27T17:18:45.969Z</time></trkpt><trkpt lat="43.7728033" lon="11.2572417"><ele>60.0</ele><time>2026-04-27T17:18:47.969Z</time></trkpt><trkpt lat="43.7728567" lon="11.25734"><ele>60.0</ele><time>2026-04-27T17:18:50.97Z</time></trkpt><trkpt lat="43.7729017" lon="11.25741"><ele>60.0</ele><time>2026-04-27T17:18:53.97Z</time></trkpt><trkpt lat="43.7729633" lon="11.2575033"><ele>60.0</ele><time>2026-04-27T17:18:56.969Z</time></trkpt><trkpt lat="43.7730217" lon="11.25757"><ele>60.0</ele><time>2026-04-27T17:18:59.969Z</time></trkpt><trkpt lat="43.7731083" lon="11.25757"><ele>60.0</ele><time>2026-04-27T17:19:03.969Z</time></trkpt><trkpt lat="43.7731733" lon="11.2574933"><ele>60.0</ele><time>2026-04-27T17:19:06.969Z</time></trkpt><trkpt lat="43.773225" lon="11.257415"><ele>60.0</ele><time>2026-04-27T17:19:08.969Z</time></trkpt><trkpt lat="43.7732867" lon="11.257355"><ele>60.0</ele><time>2026-04-27T17:19:11.969Z</time></trkpt><trkpt lat="43.773335" lon="11.2572933"><ele>60.0</ele><time>2026-04-27T17:19:13.969Z</time></trkpt><trkpt lat="43.7733983" lon="11.2572133"><ele>60.0</ele><time>2026-04-27T17:19:16.969Z</time></trkpt><trkpt lat="43.7734617" lon="11.2571267"><ele>60.0</ele><time>2026-04-27T17:19:19.969Z</time></trkpt><trkpt lat="43.7735383" lon="11.2571883"><ele>60.0</ele><time>2026-04-27T17:19:22.969Z</time></trkpt><trkpt lat="43.77362" lon="11.257245"><ele>60.0</ele><time>2026-04-27T17:19:24.969Z</time></trkpt><trkpt lat="43.7736667" lon="11.2573367"><ele>60.0</ele><time>2026-04-27T17:19:27.969Z</time></trkpt><trkpt lat="43.7737267" lon="11.2573867"><ele>60.0</ele><time>2026-04-27T17:19:29.969Z</time></trkpt><trkpt lat="43.7738217" lon="11.2574567"><ele>60.333333333333336</ele><time>2026-04-27T17:19:32.969Z</time></trkpt><trkpt lat="43.773895" lon="11.2574317"><ele>60.66666666666667</ele><time>2026-04-27T17:19:33.969Z</time></trkpt><trkpt lat="43.7739783" lon="11.257415"><ele>61.0</ele><time>2026-04-27T17:19:34.969Z</time></trkpt><trkpt lat="43.7740567" lon="11.2574283"><ele>61.333333333333336</ele><time>2026-04-27T17:19:36.969Z</time></trkpt><trkpt lat="43.7740517" lon="11.25752"><ele>61.66666666666667</ele><time>2026-04-27T17:19:38.969Z</time></trkpt><trkpt lat="43.7741383" lon="11.25758"><ele>62.0</ele><time>2026-04-27T17:19:42.969Z</time></trkpt><trkpt lat="43.774155" lon="11.2577367"><ele>62.00000000000001</ele><time>2026-04-27T17:19:45.969Z</time></trkpt><trkpt lat="43.77417" lon="11.25786"><ele>62.0</ele><time>2026-04-27T17:19:47.969Z</time></trkpt><trkpt lat="43.7742267" lon="11.2579233"><ele>62.0</ele><time>2026-04-27T17:19:49.969Z</time></trkpt><trkpt lat="43.7742783" lon="11.258005"><ele>62.0</ele><time>2026-04-27T17:19:51.969Z</time></trkpt><trkpt lat="43.7743417" lon="11.2580667"><ele>62.00000000000001</ele><time>2026-04-27T17:19:53.969Z</time></trkpt><trkpt lat="43.7743967" lon="11.2581433"><ele>62.0</ele><time>2026-04-27T17:19:55.969Z</time></trkpt><trkpt lat="43.774415" lon="11.2582467"><ele>61.714285714285715</ele><time>2026-04-27T17:19:57.969Z</time></trkpt><trkpt lat="43.7744067" lon="11.25834"><ele>61.42857142857143</ele><time>2026-04-27T17:20:00.969Z</time></trkpt><trkpt lat="43.774385" lon="11.258455"><ele>61.142857142857146</ele><time>2026-04-27T17:20:03.969Z</time></trkpt><trkpt lat="43.7744267" lon="11.2585217"><ele>60.85714285714286</ele><time>2026-04-27T17:20:06.97Z</time></trkpt><trkpt lat="43.7744183" lon="11.258645"><ele>60.57142857142857</ele><time>2026-04-27T17:20:09.969Z</time></trkpt><trkpt lat="43.7743967" lon="11.2587367"><ele>60.28571428571429</ele><time>2026-04-27T17:20:10.969Z</time></trkpt><trkpt lat="43.7744367" lon="11.2588133"><ele>60.0</ele><time>2026-04-27T17:20:12.969Z</time></trkpt><trkpt lat="43.774575" lon="11.2588783"><ele>60.0</ele><time>2026-04-27T17:20:16.969Z</time></trkpt><trkpt lat="43.774655" lon="11.2589233"><ele>60.0</ele><time>2026-04-27T17:20:18.97Z</time></trkpt><trkpt lat="43.774705" lon="11.2589983"><ele>60.0</ele><time>2026-04-27T17:20:20.969Z</time></trkpt><trkpt lat="43.7747467" lon="11.259075"><ele>60.0</ele><time>2026-04-27T17:20:22.969Z</time></trkpt><trkpt lat="43.7747783" lon="11.2592017"><ele>60.0</ele><time>2026-04-27T17:20:24.969Z</time></trkpt><trkpt lat="43.7748183" lon="11.2592917"><ele>60.0</ele><time>2026-04-27T17:20:26.969Z</time></trkpt><trkpt lat="43.774885" lon="11.2593467"><ele>60.0</ele><time>2026-04-27T17:20:28.969Z</time></trkpt><trkpt lat="43.7749567" lon="11.2594417"><ele>60.0</ele><time>2026-04-27T17:20:30.969Z</time></trkpt><trkpt lat="43.7750067" lon="11.2595383"><ele>60.0</ele><time>2026-04-27T17:20:32.969Z</time></trkpt><trkpt lat="43.7751033" lon="11.25959"><ele>60.0</ele><time>2026-04-27T17:20:34.969Z</time></trkpt><trkpt lat="43.7751817" lon="11.25961"><ele>60.0</ele><time>2026-04-27T17:20:36.969Z</time></trkpt><trkpt lat="43.7752667" lon="11.2596533"><ele>60.0</ele><time>2026-04-27T17:20:39.969Z</time></trkpt><trkpt lat="43.7753267" lon="11.2597033"><ele>60.0</ele><time>2026-04-27T17:20:41.97Z</time></trkpt><trkpt lat="43.7753633" lon="11.2598"><ele>60.0</ele><time>2026-04-27T17:20:43.969Z</time></trkpt><trkpt lat="43.7753683" lon="11.25991"><ele>60.0</ele><time>2026-04-27T17:20:46.969Z</time></trkpt><trkpt lat="43.7753317" lon="11.2600883"><ele>60.0</ele><time>2026-04-27T17:20:50.969Z</time></trkpt><trkpt lat="43.7753033" lon="11.2601683"><ele>60.0</ele><time>2026-04-27T17:20:58.969Z</time></trkpt><trkpt lat="43.775285" lon="11.260255"><ele>60.166666666666664</ele><time>2026-04-27T17:21:00.97Z</time></trkpt><trkpt lat="43.7753017" lon="11.2604117"><ele>60.33333333333333</ele><time>2026-04-27T17:21:03.97Z</time></trkpt><trkpt lat="43.775315" lon="11.2605367"><ele>60.5</ele><time>2026-04-27T17:21:05.969Z</time></trkpt><trkpt lat="43.7753" lon="11.2606317"><ele>60.666666666666664</ele><time>2026-04-27T17:21:08.969Z</time></trkpt><trkpt lat="43.7752983" lon="11.26077"><ele>60.83333333333333</ele><time>2026-04-27T17:21:10.969Z</time></trkpt><trkpt lat="43.77529" lon="11.26086"><ele>61.0</ele><time>2026-04-27T17:21:12.969Z</time></trkpt><trkpt lat="43.77527" lon="11.260975"><ele>60.199999999999996</ele><time>2026-04-27T17:21:14.969Z</time></trkpt><trkpt lat="43.7752283" lon="11.2610533"><ele>59.39999999999999</ele><time>2026-04-27T17:21:16.969Z</time></trkpt><trkpt lat="43.7751983" lon="11.2611833"><ele>58.6</ele><time>2026-04-27T17:21:19.969Z</time></trkpt><trkpt lat="43.7751233" lon="11.2612917"><ele>57.8</ele><time>2026-04-27T17:21:21.97Z</time></trkpt><trkpt lat="43.7750617" lon="11.2613167"><ele>57.0</ele><time>2026-04-27T17:21:22.969Z</time></trkpt><trkpt lat="43.7749817" lon="11.2614567"><ele>56.25</ele><time>2026-04-27T17:21:24.97Z</time></trkpt><trkpt lat="43.774915" lon="11.26158"><ele>55.5</ele><time>2026-04-27T17:21:26.969Z</time></trkpt><trkpt lat="43.7748417" lon="11.2617067"><ele>54.75</ele><time>2026-04-27T17:21:28.969Z</time></trkpt><trkpt lat="43.77478" lon="11.261845"><ele>54.0</ele><time>2026-04-27T17:21:30.969Z</time></trkpt><trkpt lat="43.77473" lon="11.2619967"><ele>54.0</ele><time>2026-04-27T17:21:32.969Z</time></trkpt><trkpt lat="43.7746917" lon="11.262085"><ele>54.0</ele><time>2026-04-27T17:21:34.969Z</time></trkpt><trkpt lat="43.774635" lon="11.2622"><ele>54.0</ele><time>2026-04-27T17:21:37.969Z</time></trkpt><trkpt lat="43.774585" lon="11.26226"><ele>54.0</ele><time>2026-04-27T17:21:39.969Z</time></trkpt><trkpt lat="43.7745033" lon="11.2622417"><ele>54.0</ele><time>2026-04-27T17:21:41.969Z</time></trkpt><trkpt lat="43.7744383" lon="11.26225"><ele>54.0</ele><time>2026-04-27T17:21:43.969Z</time></trkpt><trkpt lat="43.774365" lon="11.262285"><ele>54.42857142857143</ele><time>2026-04-27T17:21:45.969Z</time></trkpt><trkpt lat="43.7743067" lon="11.26237"><ele>54.857142857142854</ele><time>2026-04-27T17:21:47.969Z</time></trkpt><trkpt lat="43.7742633" lon="11.262455"><ele>55.285714285714285</ele><time>2026-04-27T17:21:49.969Z</time></trkpt><trkpt lat="43.77425" lon="11.2625467"><ele>55.71428571428571</ele><time>2026-04-27T17:21:51.969Z</time></trkpt><trkpt lat="43.7742467" lon="11.2626517"><ele>56.14285714285714</ele><time>2026-04-27T17:21:53.969Z</time></trkpt><trkpt lat="43.7742317" lon="11.2627533"><ele>56.57142857142857</ele><time>2026-04-27T17:21:55.969Z</time></trkpt><trkpt lat="43.7741983" lon="11.2628333"><ele>57.0</ele><time>2026-04-27T17:22:00.968Z</time></trkpt><trkpt lat="43.774175" lon="11.26292"><ele>57.0</ele><time>2026-04-27T17:22:12.968Z</time></trkpt><trkpt lat="43.7741517" lon="11.2628183"><ele>57.0</ele><time>2026-04-27T17:22:28.968Z</time></trkpt><trkpt lat="43.7740933" lon="11.2628967"><ele>57.0</ele><time>2026-04-27T17:22:45.968Z</time></trkpt><trkpt lat="43.7740967" lon="11.26302"><ele>57.0</ele><time>2026-04-27T17:22:56.968Z</time></trkpt><trkpt lat="43.7742267" lon="11.263045"><ele>57.0</ele><time>2026-04-27T17:23:07.976Z</time></trkpt><trkpt lat="43.7742033" lon="11.26296"><ele>57.0</ele><time>2026-04-27T17:23:11.976Z</time></trkpt><trkpt lat="43.7741867" lon="11.2628483"><ele>57.0</ele><time>2026-04-27T17:23:22.976Z</time></trkpt><trkpt lat="43.7741083" lon="11.26285"><ele>57.0</ele><time>2026-04-27T17:23:31.976Z</time></trkpt><trkpt lat="43.7741067" lon="11.26294"><ele>57.0</ele><time>2026-04-27T17:23:37.976Z</time></trkpt><trkpt lat="43.7741283" lon="11.263025"><ele>57.0</ele><time>2026-04-27T17:23:49.976Z</time></trkpt><trkpt lat="43.7742" lon="11.2630383"><ele>57.0</ele><time>2026-04-27T17:23:52.976Z</time></trkpt><trkpt lat="43.7742967" lon="11.2630533"><ele>57.0</ele><time>2026-04-27T17:23:55.976Z</time></trkpt><trkpt lat="43.7743483" lon="11.2629467"><ele>56.857142857142854</ele><time>2026-04-27T17:24:11.976Z</time></trkpt><trkpt lat="43.7743767" lon="11.2628267"><ele>56.71428571428571</ele><time>2026-04-27T17:24:20.976Z</time></trkpt><trkpt lat="43.7743933" lon="11.2627367"><ele>56.57142857142857</ele><time>2026-04-27T17:24:23.976Z</time></trkpt><trkpt lat="43.7744067" lon="11.2626433"><ele>56.42857142857143</ele><time>2026-04-27T17:24:36.976Z</time></trkpt><trkpt lat="43.7744633" lon="11.262575"><ele>56.285714285714285</ele><time>2026-04-27T17:24:40.977Z</time></trkpt><trkpt lat="43.77451" lon="11.26249"><ele>56.14285714285714</ele><time>2026-04-27T17:24:43.976Z</time></trkpt><trkpt lat="43.77457" lon="11.26246"><ele>56.0</ele><time>2026-04-27T17:24:49.976Z</time></trkpt><trkpt lat="43.7746383" lon="11.2624817"><ele>56.0</ele><time>2026-04-27T17:24:58.976Z</time></trkpt><trkpt lat="43.7746883" lon="11.2624267"><ele>56.0</ele><time>2026-04-27T17:25:06.976Z</time></trkpt><trkpt lat="43.7746183" lon="11.26248"><ele>56.0</ele><time>2026-04-27T17:26:58.975Z</time></trkpt><trkpt lat="43.7745517" lon="11.262575"><ele>56.0</ele><time>2026-04-27T17:27:04.976Z</time></trkpt><trkpt lat="43.77449" lon="11.2625467"><ele>56.0</ele><time>2026-04-27T17:27:08.975Z</time></trkpt></trkseg></trk></gpx>